M I D A S
Marine Information and Data Acquisition System
Tripno 886 of the Zeeleeuw from 2005-04-28 06:45:36 to 2005-04-28 15:38:20
Back to CruiseResearch ActivitiesStationsMapUnderway DataData graphs

EquipmentUnitsComment
TimeDGPSUTC
LatitudeDGPSDM.mWGS84
LongitudeDGPSDM.mWGS84
TemperatureSBE03/SBE38deg celciusITS90
ConductivitySBE21S/mITS90
SalinitySBE21 Practical Salinity Units
ChlorophylAChelsea fluorimeterg/lCalibrated in Aceton
Missing or incorrect values are displayed as -999
Sea surface data collected by the RV Zeeleeuw from 2005-04-28 06:44:08 to 2005-04-28 15:48:48
                                                                                    Next 1000 lines
Time Latitude Longitude Temperature Conductivity Salinity ChlorophylA
2005-04-28 06:44:18 51°13.597 2°56.108 18.256 3.998605 30.73251 -0.578993
2005-04-28 06:44:23 51°13.598 2°56.108 18.2582 3.998605 30.733071 -0.612702
2005-04-28 06:44:28 51°13.598 2°56.108 18.2623 3.998605 30.733071 -0.612702
2005-04-28 06:44:33 51°13.598 2°56.108 17.3335 3.998499 30.732168 -0.646411
2005-04-28 06:44:38 51°13.598 2°56.108 15.2554 3.998499 30.732729 -0.646411
2005-04-28 06:44:43 51°13.598 2°56.108 14.5334 3.982162 30.727514 0.297452
2005-04-28 06:44:48 51°13.598 2°56.108 14.1551 3.960552 30.531234 -0.039642
2005-04-28 06:44:53 51°13.598 2°56.108 13.9879 1.189836 8.147713 11.185589
2005-04-28 06:44:58 51°13.598 2°56.108 13.8695 1.189836 8.147713 11.185589
2005-04-28 06:45:03 51°13.598 2°56.108 13.8113 3.694515 27.097805 15.803777
2005-04-28 06:45:08 51°13.598 2°56.109 13.7666 3.842378 28.630224 13.680084
2005-04-28 06:45:13 51°13.597 2°56.108 13.7076 3.92935 30.229774 10.646238
2005-04-28 06:45:18 51°13.597 2°56.108 13.5878 3.744393 29.419391 18.466819
2005-04-28 06:45:23 51°13.597 2°56.108 13.5756 3.605622 28.696477 21.433247
2005-04-28 06:45:28 51°13.597 2°56.108 13.5195 3.605622 28.696477 21.433247
2005-04-28 06:45:33 51°13.596 2°56.108 13.518 3.612792 29.073476 19.747777
2005-04-28 06:45:38 51°13.596 2°56.108 13.4175 3.556743 28.785602 13.713794
2005-04-28 06:45:42 51°13.596 2°56.108 13.4075 3.49701 28.373806 11.65752
2005-04-28 06:45:48 51°13.596 2°56.108 13.3475 3.503227 28.515957 9.870922
2005-04-28 06:45:53 51°13.596 2°56.108 13.312 3.503227 28.515957 9.870922
2005-04-28 06:45:58 51°13.596 2°56.108 13.3155 3.503227 28.515957 9.870922
2005-04-28 06:46:03 51°13.596 2°56.107 13.1969 3.503227 28.515957 9.870922
2005-04-28 06:46:08 51°13.596 2°56.106 13.1633 3.475734 28.482093 6.634819
2005-04-28 06:46:13 51°13.597 2°56.104 13.0605 3.467202 28.451262 6.5674
2005-04-28 06:46:18 51°13.597 2°56.102 12.5817 3.435284 28.201252 5.960631
2005-04-28 06:46:23 51°13.598 2°56.099 12.4413 3.451613 28.40229 5.792084
2005-04-28 06:46:28 51°13.598 2°56.096 12.2458 3.451613 28.40229 5.792084
2005-04-28 06:46:33 51°13.599 2°56.093 12.105 3.44603 28.386782 5.825794
2005-04-28 06:46:38 51°13.6 2°56.088 12.016 3.448664 28.448654 5.320153
2005-04-28 06:46:44 51°13.601 2°56.084 11.8283 3.431179 28.340302 5.252734
2005-04-28 06:46:48 51°13.602 2°56.079 11.829 3.441503 28.498777 5.219024
2005-04-28 06:46:54 51°13.604 2°56.074 11.7573 3.426548 28.571305 6.702238
2005-04-28 06:46:58 51°13.605 2°56.069 11.5622 3.426548 28.571305 6.702238
2005-04-28 06:47:04 51°13.607 2°56.063 11.5231 3.378307 28.296684 9.500118
2005-04-28 06:47:08 51°13.608 2°56.058 11.4256 3.351451 28.230756 9.870922
2005-04-28 06:47:14 51°13.61 2°56.052 11.3371 3.333127 28.180284 10.410272
2005-04-28 06:47:18 51°13.611 2°56.047 11.2687 3.323123 28.192413 12.837349
2005-04-28 06:47:24 51°13.613 2°56.039 11.2228 3.320175 28.268865 14.219435
2005-04-28 06:47:29 51°13.615 2°56.033 11.1776 3.320175 28.268865 14.219435
2005-04-28 06:47:34 51°13.617 2°56.027 11.1687 3.318386 28.341952 15.230717
2005-04-28 06:47:38 51°13.619 2°56.021 11.1561 3.317545 28.436581 16.781349
2005-04-28 06:47:44 51°13.621 2°56.013 11.0496 3.321127 28.554657 17.522956
2005-04-28 06:47:48 51°13.623 2°56.007 11.0348 3.322708 28.657422 17.3207
2005-04-28 06:47:54 51°13.625 2°55.999 11.0243 3.326817 28.770918 17.388118
2005-04-28 06:47:59 51°13.627 2°55.991 11.0192 3.326817 28.770918 17.388118
2005-04-28 06:48:03 51°13.63 2°55.984 10.9791 3.327765 28.831193 17.219571
2005-04-28 06:48:09 51°13.632 2°55.974 10.9618 3.32924 28.898621 17.3207
2005-04-28 06:48:14 51°13.635 2°55.966 10.9789 3.332506 28.959873 19.680358
2005-04-28 06:48:18 51°13.638 2°55.958 10.9171 3.331453 28.995887 20.320836
2005-04-28 06:48:24 51°13.641 2°55.949 10.9129 3.295118 28.687313 19.848905
2005-04-28 06:48:28 51°13.643 2°55.94 10.9138 3.295118 28.687313 19.848905
2005-04-28 06:48:34 51°13.647 2°55.931 10.9291 3.334403 29.089509 19.950033
2005-04-28 06:48:39 51°13.65 2°55.921 10.878 3.341144 29.181762 21.80405
2005-04-28 06:48:43 51°13.654 2°55.914 10.9026 3.340618 29.200663 21.80405
2005-04-28 06:48:49 51°13.658 2°55.904 10.9017 3.343251 29.235653 22.208563
2005-04-28 06:48:54 51°13.661 2°55.895 10.9122 3.343884 29.267125 22.410819
2005-04-28 06:48:58 51°13.664 2°55.887 10.8651 3.343884 29.267125 22.410819
2005-04-28 06:49:04 51°13.669 2°55.876 10.8682 3.347149 29.314034 22.646785
2005-04-28 06:49:08 51°13.672 2°55.868 10.8289 3.343041 29.279264 22.37711
2005-04-28 06:49:14 51°13.677 2°55.858 10.8048 3.343884 29.302058 22.208563
2005-04-28 06:49:18 51°13.68 2°55.851 10.815 3.343779 29.308669 22.37711
2005-04-28 06:49:24 51°13.684 2°55.84 10.8052 3.30481 28.938771 20.69164
2005-04-28 06:49:29 51°13.688 2°55.832 10.8026 3.30481 28.938771 20.69164
2005-04-28 06:49:34 51°13.692 2°55.823 10.7753 3.307653 28.966345 19.747777
2005-04-28 06:49:39 51°13.695 2°55.815 10.7627 3.315342 29.0529 19.646648
2005-04-28 06:49:44 51°13.699 2°55.806 10.7904 3.311551 29.034401 18.43311
2005-04-28 06:49:49 51°13.703 2°55.797 10.7682 3.309866 29.035716 18.331982
2005-04-28 06:49:54 51°13.706 2°55.789 10.7611 3.311341 29.063952 17.354409
2005-04-28 06:49:58 51°13.709 2°55.782 10.7523 3.311341 29.063952 17.354409
2005-04-28 06:50:04 51°13.714 2°55.771 10.7666 3.313342 29.094803 17.657794
2005-04-28 06:50:09 51°13.716 2°55.764 10.7634 3.319451 29.165647 17.421828
2005-04-28 06:50:14 51°13.719 2°55.755 10.7796 3.313447 29.119926 17.657794
2005-04-28 06:50:18 51°13.722 2°55.749 10.7762 3.320188 29.189993 17.084734
2005-04-28 06:50:24 51°13.724 2°55.742 10.7672 3.321031 29.206475 17.691503
2005-04-28 06:50:29 51°13.725 2°55.738 10.7677 3.321031 29.206475 17.691503
2005-04-28 06:50:33 51°13.726 2°55.735 10.7591 3.322295 29.225797 18.163435
2005-04-28 06:50:38 51°13.728 2°55.734 10.7761 3.328825 29.292624 17.826341
2005-04-28 06:50:43 51°13.728 2°55.734 10.7601 3.319135 29.1982 17.354409
2005-04-28 06:50:48 51°13.729 2°55.736 10.7865 3.318714 29.189637 17.388118
2005-04-28 06:50:53 51°13.73 2°55.738 10.7788 3.327455 29.273531 16.680221
2005-04-28 06:50:58 51°13.731 2°55.739 10.795 3.327455 29.273531 16.680221
2005-04-28 06:51:03 51°13.731 2°55.739 10.794 3.311657 29.121545 16.71393
2005-04-28 06:51:08 51°13.732 2°55.738 10.8028 3.313237 29.140744 17.118443
2005-04-28 06:51:13 51°13.732 2°55.737 10.8036 3.3026 29.038426 17.253281
2005-04-28 06:51:18 51°13.731 2°55.734 10.7927 3.306707 29.079689 16.410546
2005-04-28 06:51:22 51°13.731 2°55.732 10.8047 3.300809 29.018463 16.208289
2005-04-28 06:51:28 51°13.73 2°55.728 10.809 3.300809 29.018463 16.208289
2005-04-28 06:51:33 51°13.729 2°55.724 10.8112 3.295649 28.965074 15.871195
2005-04-28 06:51:38 51°13.729 2°55.721 10.804 3.288803 28.893427 16.612802
2005-04-28 06:51:44 51°13.728 2°55.718 10.8148 3.271426 28.720094 16.343127
2005-04-28 06:51:49 51°13.727 2°55.714 10.818 3.273427 28.735153 16.477965
2005-04-28 06:51:54 51°13.726 2°55.711 10.8123 3.271005 28.712244 17.185862
2005-04-28 06:51:58 51°13.726 2°55.709 10.8148 3.271005 28.712244 17.185862
2005-04-28 06:52:04 51°13.726 2°55.708 10.8174 3.271847 28.719178 16.410546
2005-04-28 06:52:09 51°13.726 2°55.708 10.8115 3.266898 28.668593 17.017315
2005-04-28 06:52:14 51°13.728 2°55.708 10.8147 3.273848 28.735488 16.17458
2005-04-28 06:52:18 51°13.729 2°55.709 10.8113 3.266582 28.664275 16.545383
2005-04-28 06:52:24 51°13.732 2°55.709 10.8222 3.253944 28.539706 16.545383
2005-04-28 06:52:29 51°13.735 2°55.709 10.8226 3.253944 28.539706 16.545383
2005-04-28 06:52:34 51°13.739 2°55.709 10.8251 3.264581 28.643594 16.410546
2005-04-28 06:52:39 51°13.744 2°55.707 10.8243 3.260263 28.601045 16.71393
2005-04-28 06:52:44 51°13.748 2°55.706 10.8362 3.249837 28.500467 17.455537
2005-04-28 06:52:49 51°13.752 2°55.703 10.8501 3.244572 28.450614 16.376836
2005-04-28 06:52:52 51°13.755 2°55.701 10.8418 3.232356 28.333974 17.118443
2005-04-28 06:52:58 51°13.759 2°55.697 10.8387 3.232356 28.333974 17.118443
2005-04-28 06:53:04 51°13.764 2°55.693 10.8367 3.244361 28.447951 15.837486
2005-04-28 06:53:08 51°13.768 2°55.69 10.8305 3.247942 28.48021 16.275708
2005-04-28 06:53:14 51°13.774 2°55.686 10.8343 3.246046 28.459958 16.208289
2005-04-28 06:53:19 51°13.78 2°55.682 10.8439 3.238569 28.38434 17.455537
2005-04-28 06:53:23 51°13.785 2°55.678 10.8576 3.231092 28.305681 16.343127
2005-04-28 06:53:28 51°13.791 2°55.673 10.858 3.231092 28.305681 16.343127
2005-04-28 06:53:33 51°13.797 2°55.668 10.8561 3.228565 28.279956 17.017315
2005-04-28 06:53:38 51°13.805 2°55.662 10.8562 3.229723 28.291181 16.815059
2005-04-28 06:53:43 51°13.813 2°55.656 10.866 3.236042 28.354273 17.185862
2005-04-28 06:53:48 51°13.82 2°55.65 10.8575 3.23878 28.3802 17.657794
2005-04-28 06:53:53 51°13.828 2°55.644 10.8658 3.234146 28.332813 17.961178
2005-04-28 06:53:58 51°13.835 2°55.639 10.864 3.234146 28.332813 17.961178
2005-04-28 06:54:03 51°13.845 2°55.632 10.8647 3.224142 28.231568 16.815059
2005-04-28 06:54:08 51°13.853 2°55.626 10.8505 3.216455 28.152215 17.017315
2005-04-28 06:54:13 51°13.861 2°55.619 10.8432 3.210768 28.096558 17.691503
2005-04-28 06:54:18 51°13.87 2°55.612 10.8421 3.206135 28.049886 16.410546
2005-04-28 06:54:24 51°13.881 2°55.604 10.8289 3.20266 28.016264 16.511674
2005-04-28 06:54:28 51°13.889 2°55.598 10.8351 3.20266 28.016264 16.511674
2005-04-28 06:54:33 51°13.898 2°55.592 10.8229 3.204345 28.030735 16.848768
2005-04-28 06:54:38 51°13.908 2°55.584 10.8158 3.211821 28.101857 16.612802
2005-04-28 06:54:43 51°13.918 2°55.577 10.8139 3.223089 28.213382 17.927469
2005-04-28 06:54:48 51°13.928 2°55.569 10.8138 3.235936 28.34461 17.455537
2005-04-28 06:54:52 51°13.936 2°55.563 10.805 3.248257 28.467769 17.691503
2005-04-28 06:54:58 51°13.947 2°55.554 10.8 3.248257 28.467769 17.691503
2005-04-28 06:55:02 51°13.955 2°55.548 10.7891 3.260684 28.595787 17.421828
2005-04-28 06:55:08 51°13.967 2°55.539 10.7823 3.268372 28.672915 17.624084
2005-04-28 06:55:13 51°13.978 2°55.531 10.793 3.281431 28.807287 18.230853
2005-04-28 06:55:18 51°13.987 2°55.524 10.7755 3.29291 28.922028 18.669076
2005-04-28 06:55:23 51°13.998 2°55.516 10.7776 3.303126 29.023924 18.466819
2005-04-28 06:55:28 51°14.008 2°55.509 10.7735 3.303126 29.023924 18.466819
2005-04-28 06:55:33 51°14.019 2°55.501 10.7652 3.313763 29.132527 18.534238
2005-04-28 06:55:38 51°14.028 2°55.494 10.771 3.325876 29.258775 20.556802
2005-04-28 06:55:43 51°14.039 2°55.486 10.7664 3.336303 29.367447 20.320836
2005-04-28 06:55:48 51°14.048 2°55.479 10.7729 3.343886 29.443974 18.466819
2005-04-28 06:55:54 51°14.06 2°55.47 10.7919 3.35168 29.525175 19.815195
2005-04-28 06:55:58 51°14.069 2°55.464 10.7816 3.35168 29.525175 19.815195
2005-04-28 06:56:03 51°14.081 2°55.455 10.784 3.356841 29.578782 18.365691
2005-04-28 06:56:08 51°14.092 2°55.446 10.7859 3.360949 29.622125 18.97246
2005-04-28 06:56:13 51°14.103 2°55.438 10.7853 3.362845 29.643878 19.983742
2005-04-28 06:56:18 51°14.116 2°55.428 10.7909 3.36611 29.675776 20.253418
2005-04-28 06:56:23 51°14.128 2°55.418 10.7812 3.366426 29.676919 20.69164
2005-04-28 06:56:28 51°14.141 2°55.408 10.7825 3.366426 29.676919 20.69164
2005-04-28 06:56:33 51°14.153 2°55.397 10.7902 3.366426 29.674327 19.275845
2005-04-28 06:56:38 51°14.165 2°55.387 10.7826 3.365584 29.664153 18.803913
2005-04-28 06:56:43 51°14.178 2°55.373 10.7845 3.364214 29.650779 18.938751
2005-04-28 06:56:48 51°14.19 2°55.361 10.7819 3.362213 29.630588 18.466819
2005-04-28 06:56:53 51°14.202 2°55.348 10.7802 3.359474 29.601907 18.837623
2005-04-28 06:56:58 51°14.213 2°55.335 10.7696 3.359474 29.601907 18.837623
2005-04-28 06:57:03 51°14.226 2°55.319 10.768 3.356736 29.576462 18.871332
2005-04-28 06:57:08 51°14.237 2°55.304 10.7563 3.35147 29.525052 18.264563
2005-04-28 06:57:13 51°14.249 2°55.287 10.756 3.349047 29.502052 18.264563
2005-04-28 06:57:18 51°14.258 2°55.273 10.7542 3.347257 29.485221 17.691503
2005-04-28 06:57:23 51°14.269 2°55.256 10.7502 3.346098 29.476488 20.084871
2005-04-28 06:57:28 51°14.28 2°55.236 10.756 3.346098 29.476488 20.084871
2005-04-28 06:57:33 51°14.29 2°55.218 10.7581 3.350311 29.519544 18.062306
2005-04-28 06:57:38 51°14.299 2°55.2 10.7524 3.355788 29.577538 19.00617
2005-04-28 06:57:43 51°14.31 2°55.178 10.7542 3.360423 29.629274 19.00617
2005-04-28 06:57:48 51°14.319 2°55.158 10.7543 3.365478 29.683215 19.848905
2005-04-28 06:57:53 51°14.328 2°55.136 10.7513 3.366216 29.693665 19.376973
2005-04-28 06:57:58 51°14.336 2°55.117 10.7487 3.366216 29.693665 19.376973
2005-04-28 06:58:03 51°14.346 2°55.093 10.7541 3.364425 29.676811 20.65793
2005-04-28 06:58:08 51°14.355 2°55.071 10.7505 3.361265 29.645926 19.174717
2005-04-28 06:58:12 51°14.361 2°55.052 10.7606 3.358948 29.624575 20.084871
2005-04-28 06:58:18 51°14.372 2°55.026 10.7661 3.358527 29.6224 20.354546
2005-04-28 06:58:23 51°14.382 2°55.004 10.7634 3.363056 29.66602 19.916324
2005-04-28 06:58:28 51°14.394 2°54.984 10.7923 3.363056 29.66602 19.916324
2005-04-28 06:58:33 51°14.406 2°54.964 10.7965 3.368954 29.723685 20.489383
2005-04-28 06:58:38 51°14.418 2°54.947 10.778 3.376433 29.798772 23.422101
2005-04-28 06:58:42 51°14.43 2°54.93 10.7891 3.381489 29.848232 20.69164
2005-04-28 06:58:48 51°14.447 2°54.91 10.7498 3.382437 29.854244 21.972597
2005-04-28 06:58:53 51°14.462 2°54.893 10.7518 3.382015 29.846861 20.421965
2005-04-28 06:58:58 51°14.478 2°54.876 10.7328 3.382015 29.846861 20.421965
2005-04-28 06:59:03 51°14.492 2°54.859 10.7143 3.382437 29.845764 20.759059
2005-04-28 06:59:08 51°14.508 2°54.841 10.7075 3.379171 29.804716 20.489383
2005-04-28 06:59:13 51°14.523 2°54.825 10.708 3.381488 29.824113 21.062443
2005-04-28 06:59:18 51°14.538 2°54.811 10.704 3.386439 29.871862 21.702922
2005-04-28 06:59:22 51°14.553 2°54.799 10.6958 3.398658 30.002502 21.702922
2005-04-28 06:59:28 51°14.572 2°54.784 10.6899 3.398658 30.002502 21.702922
2005-04-28 06:59:33 51°14.589 2°54.774 10.6903 3.412668 30.147555 20.995024
2005-04-28 06:59:38 51°14.605 2°54.765 10.6863 3.426678 30.299398 21.399537
2005-04-28 06:59:43 51°14.624 2°54.755 10.6789 3.451328 30.555281 21.905178
2005-04-28 06:59:48 51°14.641 2°54.747 10.6638 3.467129 30.71725 22.141144
2005-04-28 06:59:53 51°14.659 2°54.738 10.6562 3.482194 30.870794 20.017452
2005-04-28 06:59:58 51°14.674 2°54.731 10.6678 3.482194 30.870794 20.017452
2005-04-28 07:00:03 51°14.694 2°54.723 10.6622 3.505265 31.10403 21.129862
2005-04-28 07:00:08 51°14.712 2°54.716 10.6588 3.525388 31.307134 19.242136
2005-04-28 07:00:13 51°14.728 2°54.71 10.6548 3.543614 31.492453 19.848905
2005-04-28 07:00:18 51°14.746 2°54.704 10.6479 3.557943 31.636701 18.197144
2005-04-28 07:00:23 51°14.764 2°54.698 10.6415 3.572694 31.792898 17.28699
2005-04-28 07:00:28 51°14.784 2°54.691 10.6452 3.572694 31.792898 17.28699
2005-04-28 07:00:33 51°14.802 2°54.685 10.6371 3.578067 31.849524 18.3994
2005-04-28 07:00:38 51°14.82 2°54.679 10.6393 3.58481 31.919028 18.466819
2005-04-28 07:00:43 51°14.836 2°54.674 10.6219 3.586602 31.938852 18.163435
2005-04-28 07:00:48 51°14.855 2°54.669 10.6343 3.5905 31.982345 17.219571
2005-04-28 07:00:53 51°14.874 2°54.665 10.6302 3.594082 32.022727 17.455537
2005-04-28 07:00:58 51°14.892 2°54.661 10.6304 3.594082 32.022727 17.455537
2005-04-28 07:01:03 51°14.91 2°54.657 10.6202 3.59777 32.063468 16.545383
2005-04-28 07:01:08 51°14.928 2°54.654 10.6144 3.602617 32.115005 17.691503
2005-04-28 07:01:13 51°14.946 2°54.649 10.6229 3.602301 32.113283 16.511674
2005-04-28 07:01:18 51°14.964 2°54.645 10.6205 3.606094 32.15793 15.871195
2005-04-28 07:01:24 51°14.984 2°54.64 10.6131 3.607043 32.170862 18.062306
2005-04-28 07:01:28 51°15 2°54.636 10.6092 3.607043 32.170862 18.062306
2005-04-28 07:01:33 51°15.018 2°54.63 10.6111 3.608518 32.187607 15.904905
2005-04-28 07:01:38 51°15.034 2°54.624 10.609 3.607043 32.175102 16.781349
2005-04-28 07:01:43 51°15.054 2°54.617 10.6147 3.608939 32.197443 17.758922
2005-04-28 07:01:48 51°15.071 2°54.611 10.6125 3.609466 32.204083 17.388118
2005-04-28 07:01:53 51°15.088 2°54.604 10.6114 3.611574 32.228524 16.848768
2005-04-28 07:01:58 51°15.104 2°54.598 10.6052 3.611574 32.228524 16.848768
2005-04-28 07:02:03 51°15.123 2°54.591 10.6142 3.608413 32.201414 16.444255
2005-04-28 07:02:08 51°15.141 2°54.584 10.6074 3.610204 32.221308 17.489247
2005-04-28 07:02:13 51°15.158 2°54.576 10.6137 3.612101 32.241542 17.219571
2005-04-28 07:02:18 51°15.176 2°54.57 10.6023 3.61052 32.225152 15.399264
2005-04-28 07:02:23 51°15.193 2°54.563 10.6069 3.608729 32.207381 17.152153
2005-04-28 07:02:28 51°15.211 2°54.557 10.6129 3.608729 32.207381 17.152153
2005-04-28 07:02:33 51°15.229 2°54.551 10.6226 3.609993 32.221341 17.556665
2005-04-28 07:02:38 51°15.247 2°54.545 10.6105 3.60894 32.210887 14.657657
2005-04-28 07:02:43 51°15.265 2°54.541 10.6093 3.606832 32.189981 16.17458
2005-04-28 07:02:48 51°15.282 2°54.538 10.6165 3.606095 32.181957 16.916187
2005-04-28 07:02:52 51°15.298 2°54.534 10.6143 3.605673 32.180604 16.781349
2005-04-28 07:02:58 51°15.32 2°54.529 10.6043 3.605673 32.180604 16.781349
2005-04-28 07:03:03 51°15.338 2°54.524 10.6057 3.604409 32.168061 16.410546
2005-04-28 07:03:08 51°15.356 2°54.518 10.601 3.606411 32.1858 17.219571
2005-04-28 07:03:13 51°15.374 2°54.51 10.5977 3.608307 32.201784 17.725212
2005-04-28 07:03:18 51°15.39 2°54.502 10.5989 3.611784 32.236989 15.534101
2005-04-28 07:03:23 51°15.409 2°54.491 10.6009 3.614735 32.266263 17.354409
2005-04-28 07:03:28 51°15.427 2°54.48 10.6017 3.614735 32.266263 17.354409
2005-04-28 07:03:33 51°15.444 2°54.47 10.6014 3.616842 32.290014 15.702648
2005-04-28 07:03:38 51°15.462 2°54.459 10.6042 3.620741 32.333685 16.343127
2005-04-28 07:03:43 51°15.478 2°54.45 10.6105 3.622637 32.353227 14.556529
2005-04-28 07:03:48 51°15.497 2°54.439 10.6127 3.624007 32.371099 15.972324
2005-04-28 07:03:53 51°15.515 2°54.43 10.6201 3.622111 32.354398 15.702648
2005-04-28 07:03:58 51°15.532 2°54.423 10.6083 3.622111 32.354398 15.702648
2005-04-28 07:04:03 51°15.55 2°54.415 10.6105 3.62327 32.365908 16.107161
2005-04-28 07:04:08 51°15.57 2°54.407 10.6075 3.62327 32.363774 14.893623
2005-04-28 07:04:13 51°15.588 2°54.399 10.609 3.624323 32.372814 14.725076
2005-04-28 07:04:18 51°15.605 2°54.392 10.606 3.624007 32.366117 16.140871
2005-04-28 07:04:23 51°15.625 2°54.382 10.6014 3.627063 32.392189 16.579093
2005-04-28 07:04:28 51°15.643 2°54.373 10.6093 3.627063 32.392189 16.579093
2005-04-28 07:04:32 51°15.657 2°54.365 10.6039 3.627484 32.394238 15.365554
2005-04-28 07:04:38 51°15.677 2°54.354 10.6031 3.62917 32.411691 14.792494
2005-04-28 07:04:43 51°15.697 2°54.342 10.6027 3.632964 32.452215 16.039742
2005-04-28 07:04:48 51°15.715 2°54.332 10.5987 3.630119 32.424671 16.039742
2005-04-28 07:04:54 51°15.735 2°54.321 10.6071 3.629908 32.425429 15.331845
2005-04-28 07:04:58 51°15.75 2°54.314 10.6017 3.629908 32.425429 15.331845
2005-04-28 07:05:03 51°15.77 2°54.303 10.6019 3.632858 32.456876 17.185862
2005-04-28 07:05:08 51°15.788 2°54.294 10.5914 3.627695 32.403452 14.185725
2005-04-28 07:05:13 51°15.806 2°54.285 10.5899 3.627063 32.398598 13.91605
2005-04-28 07:05:18 51°15.824 2°54.276 10.5841 3.6219 32.348748 15.432973
2005-04-28 07:05:23 51°15.842 2°54.267 10.5832 3.621268 32.343893 14.118306
2005-04-28 07:05:28 51°15.86 2°54.258 10.5778 3.621268 32.343893 14.118306
2005-04-28 07:05:33 51°15.877 2°54.248 10.5728 3.617158 32.303091 14.354272
2005-04-28 07:05:38 51°15.893 2°54.24 10.57 3.615683 32.289865 12.80364
2005-04-28 07:05:43 51°15.911 2°54.23 10.5668 3.612838 32.26446 14.354272
2005-04-28 07:05:48 51°15.927 2°54.221 10.5696 3.612417 32.263114 15.129589
2005-04-28 07:05:53 51°15.942 2°54.213 10.5674 3.611363 32.2562 13.578956
2005-04-28 07:05:58 51°15.956 2°54.206 10.567 3.611363 32.2562 13.578956
2005-04-28 07:06:03 51°15.969 2°54.199 10.5658 3.610099 32.247192 12.331708
2005-04-28 07:06:09 51°15.984 2°54.194 10.5662 3.611996 32.270284 12.432836
2005-04-28 07:06:13 51°15.995 2°54.191 10.5638 3.612206 32.275927 12.365418
2005-04-28 07:06:18 51°16.007 2°54.188 10.5677 3.608202 32.238997 11.994614
2005-04-28 07:06:23 51°16.019 2°54.187 10.5646 3.608308 32.242881 11.893486
2005-04-28 07:06:28 51°16.03 2°54.187 10.5631 3.608308 32.242881 11.893486
2005-04-28 07:06:33 51°16.039 2°54.188 10.5583 3.608519 32.246394 12.702512
2005-04-28 07:06:38 51°16.049 2°54.189 10.5593 3.609256 32.253011 13.545247
2005-04-28 07:06:43 51°16.06 2°54.192 10.5602 3.609994 32.261048 13.174443
2005-04-28 07:06:48 51°16.069 2°54.195 10.5601 3.610837 32.270132 12.80364
2005-04-28 07:06:53 51°16.078 2°54.198 10.5523 3.610415 32.265945 12.129452
2005-04-28 07:06:58 51°16.086 2°54.202 10.553 3.610415 32.265945 12.129452
2005-04-28 07:07:03 51°16.095 2°54.206 10.5544 3.609994 32.261048 12.23058
2005-04-28 07:07:08 51°16.103 2°54.21 10.5551 3.611469 32.278544 11.927195
2005-04-28 07:07:13 51°16.112 2°54.214 10.5516 3.611996 32.287332 14.421691
2005-04-28 07:07:18 51°16.12 2°54.218 10.5476 3.607044 32.239546 12.837349
2005-04-28 07:07:23 51°16.128 2°54.222 10.5516 3.611469 32.284228 13.814922
2005-04-28 07:07:28 51°16.136 2°54.225 10.5446 3.611469 32.284228 13.814922
2005-04-28 07:07:32 51°16.143 2°54.228 10.5438 3.61031 32.276264 13.410409
2005-04-28 07:07:38 51°16.152 2°54.232 10.5417 3.611153 32.286063 13.444118
2005-04-28 07:07:43 51°16.16 2°54.235 10.5474 3.609889 32.273496 12.196871
2005-04-28 07:07:48 51°16.167 2°54.239 10.541 3.609678 32.272823 12.76993
2005-04-28 07:07:52 51°16.174 2°54.241 10.5465 3.611258 32.290665 11.859777
2005-04-28 07:07:58 51°16.183 2°54.245 10.5419 3.611258 32.290665 11.859777
2005-04-28 07:08:03 51°16.191 2°54.248 10.5453 3.612207 32.302936 11.994614
2005-04-28 07:08:08 51°16.198 2°54.252 10.5454 3.609573 32.278883 13.713794
2005-04-28 07:08:13 51°16.204 2°54.255 10.5504 3.607992 32.264593 12.500255
2005-04-28 07:08:18 51°16.211 2°54.258 10.5493 3.606833 32.253783 12.80364
2005-04-28 07:08:24 51°16.218 2°54.262 10.5486 3.607149 32.256925 13.680084
2005-04-28 07:08:28 51°16.223 2°54.266 10.5437 3.607149 32.256925 13.680084
2005-04-28 07:08:33 51°16.228 2°54.269 10.5456 3.608835 32.272262 13.983469
2005-04-28 07:08:38 51°16.232 2°54.272 10.5421 3.608203 32.267399 13.107024
2005-04-28 07:08:43 51°16.236 2°54.276 10.5475 3.606833 32.253072 13.781212
2005-04-28 07:08:48 51°16.239 2°54.278 10.5478 3.60873 32.271215 13.680084
2005-04-28 07:08:53 51°16.241 2°54.279 10.5464 3.606412 32.246752 12.871059
2005-04-28 07:08:58 51°16.242 2°54.279 10.5436 3.606412 32.246752 12.871059
2005-04-28 07:09:03 51°16.242 2°54.278 10.5439 3.609046 32.272935 13.208153
2005-04-28 07:09:08 51°16.242 2°54.276 10.5422 3.608624 32.270167 13.814922
2005-04-28 07:09:12 51°16.242 2°54.276 10.5406 3.609889 32.284159 11.320426
2005-04-28 07:09:18 51°16.243 2°54.274 10.5404 3.607887 32.262835 13.410409
2005-04-28 07:09:22 51°16.243 2°54.272 10.5377 3.607887 32.262125 14.017178
2005-04-28 07:09:28 51°16.243 2°54.271 10.5404 3.607887 32.262125 14.017178
2005-04-28 07:09:32 51°16.243 2°54.269 10.5386 3.605779 32.241179 13.713794
2005-04-28 07:09:38 51°16.243 2°54.268 10.5408 3.60873 32.270504 12.80364
2005-04-28 07:09:43 51°16.244 2°54.266 10.5379 3.604199 32.2276 13.747503
2005-04-28 07:09:48 51°16.244 2°54.264 10.5373 3.608203 32.269531 14.556529
2005-04-28 07:09:53 51°16.244 2°54.263 10.5364 3.603672 32.225203 13.91605
2005-04-28 07:09:58 51°16.244 2°54.261 10.5388 3.603672 32.225203 13.91605
2005-04-28 07:10:03 51°16.244 2°54.26 10.539 3.607992 32.268858 13.781212
2005-04-28 07:10:08 51°16.244 2°54.258 10.5373 3.607149 32.261188 12.196871
2005-04-28 07:10:13 51°16.244 2°54.256 10.5417 3.607781 32.267474 14.893623
2005-04-28 07:10:18 51°16.244 2°54.255 10.5387 3.605779 32.249702 13.680084
2005-04-28 07:10:22 51°16.245 2°54.254 10.5385 3.606201 32.253892 14.118306
2005-04-28 07:10:28 51°16.245 2°54.252 10.5389 3.606201 32.253892 14.118306
2005-04-28 07:10:33 51°16.245 2°54.25 10.5363 3.607992 32.273123 13.410409
2005-04-28 07:10:38 51°16.245 2°54.248 10.5401 3.604937 32.242742 13.275571
2005-04-28 07:10:43 51°16.245 2°54.247 10.541 3.610837 32.301413 12.297999
2005-04-28 07:10:48 51°16.245 2°54.245 10.5398 3.610942 32.301037 15.163298
2005-04-28 07:10:53 51°16.245 2°54.244 10.5367 3.608519 32.27694 14.253144
2005-04-28 07:10:58 51°16.245 2°54.242 10.541 3.608519 32.27694 14.253144
2005-04-28 07:11:03 51°16.246 2°54.241 10.5408 3.607781 32.269606 13.983469
2005-04-28 07:11:08 51°16.246 2°54.239 10.541 3.606412 32.255277 15.904905
2005-04-28 07:11:13 51°16.246 2°54.237 10.5356 3.608098 32.272749 15.399264
2005-04-28 07:11:18 51°16.246 2°54.236 10.5421 3.607465 32.266463 13.444118
2005-04-28 07:11:22 51°16.246 2°54.234 10.5396 3.607887 32.269943 16.140871
2005-04-28 07:11:28 51°16.246 2°54.232 10.543 3.607887 32.269943 16.140871
2005-04-28 07:11:33 51°16.246 2°54.231 10.5348 3.609362 32.28461 15.567811
2005-04-28 07:11:38 51°16.246 2°54.229 10.541 3.609573 32.286705 14.522819
2005-04-28 07:11:43 51°16.247 2°54.227 10.5433 3.61168 32.30766 13.713794
2005-04-28 07:11:48 51°16.247 2°54.226 10.5386 3.607465 32.265752 15.365554
2005-04-28 07:11:53 51°16.247 2°54.224 10.539 3.613787 32.328617 15.331845
2005-04-28 07:11:59 51°16.247 2°54.222 10.5415 3.613787 32.328617 15.331845
2005-04-28 07:12:03 51°16.247 2°54.221 10.5394 3.610732 32.296807 15.60152
2005-04-28 07:12:08 51°16.247 2°54.22 10.5392 3.609362 32.283899 14.050888
2005-04-28 07:12:12 51°16.247 2°54.219 10.5431 3.611259 32.304181 15.770067
2005-04-28 07:12:18 51°16.247 2°54.217 10.5438 3.615473 32.345384 16.646512
2005-04-28 07:12:23 51°16.248 2°54.215 10.5441 3.61442 32.335617 15.197007
2005-04-28 07:12:28 51°16.248 2°54.213 10.5401 3.61442 32.335617 15.197007
2005-04-28 07:12:33 51°16.248 2°54.212 10.5495 3.611891 32.309756 16.208289
2005-04-28 07:12:38 51°16.248 2°54.21 10.5472 3.615262 32.341863 15.60152
2005-04-28 07:12:43 51°16.248 2°54.209 10.5427 3.614736 32.336624 15.803777
2005-04-28 07:12:48 51°16.249 2°54.207 10.5387 3.616527 32.355151 14.623947
2005-04-28 07:12:53 51°16.249 2°54.206 10.546 3.613577 32.325809 16.039742
2005-04-28 07:12:58 51°16.249 2°54.204 10.5461 3.613577 32.325809 16.039742
2005-04-28 07:13:02 51°16.249 2°54.203 10.543 3.610626 32.29576 13.91605
2005-04-28 07:13:08 51°16.249 2°54.201 10.5428 3.611996 32.308668 15.298136
2005-04-28 07:13:13 51°16.249 2°54.199 10.5406 3.612312 32.310388 16.073452
2005-04-28 07:13:18 51°16.25 2°54.198 10.5441 3.613366 32.321577 14.48911
2005-04-28 07:13:23 51°16.25 2°54.196 10.5445 3.607992 32.269569 14.118306
2005-04-28 07:13:28 51°16.25 2°54.194 10.5433 3.607992 32.269569 14.118306
2005-04-28 07:13:33 51°16.25 2°54.193 10.5471 3.615262 32.341151 16.073452
2005-04-28 07:13:38 51°16.25 2°54.191 10.5404 3.612312 32.3111 15.668939
2005-04-28 07:13:43 51°16.25 2°54.189 10.5434 3.609257 32.281429 15.534101
2005-04-28 07:13:48 51°16.251 2°54.188 10.5451 3.609046 32.278623 14.657657
2005-04-28 07:13:53 51°16.251 2°54.186 10.5493 3.609467 32.282813 14.522819
2005-04-28 07:13:58 51°16.251 2°54.185 10.5419 3.609467 32.282813 14.522819
2005-04-28 07:14:03 51°16.251 2°54.183 10.5445 3.610205 32.289435 13.680084
2005-04-28 07:14:08 51°16.252 2°54.182 10.5402 3.613471 32.322625 15.60152
2005-04-28 07:14:13 51°16.252 2°54.18 10.5421 3.608519 32.274096 16.275708
2005-04-28 07:14:18 51°16.252 2°54.179 10.5447 3.612734 32.316715 15.466683
2005-04-28 07:14:22 51°16.252 2°54.177 10.5425 3.608624 32.275143 16.140871
2005-04-28 07:14:28 51°16.253 2°54.176 10.5433 3.608624 32.275143 16.140871
2005-04-28 07:14:32 51°16.253 2°54.174 10.5435 3.617054 32.356827 15.803777
2005-04-28 07:14:38 51°16.253 2°54.173 10.5414 3.616 32.347061 18.635366
2005-04-28 07:14:43 51°16.253 2°54.171 10.5438 3.616948 32.357918 15.871195
2005-04-28 07:14:48 51°16.254 2°54.169 10.544 3.609678 32.287042 15.803777
2005-04-28 07:14:53 51°16.254 2°54.168 10.5431 3.613893 32.328953 16.208289
2005-04-28 07:14:58 51°16.254 2°54.166 10.5464 3.613893 32.328953 16.208289
2005-04-28 07:15:04 51°16.254 2°54.164 10.542 3.61737 32.362823 15.365554
2005-04-28 07:15:08 51°16.254 2°54.162 10.5416 3.61463 32.335576 16.680221
2005-04-28 07:15:13 51°16.254 2°54.161 10.5405 3.61463 32.336288 16.680221
2005-04-28 07:15:18 51°16.255 2°54.159 10.5406 3.616738 32.356535 15.264426
2005-04-28 07:15:23 51°16.255 2°54.158 10.5405 3.61031 32.291905 14.994751
2005-04-28 07:15:28 51°16.255 2°54.156 10.5414 3.61031 32.291905 14.994751
2005-04-28 07:15:32 51°16.255 2°54.154 10.5433 3.618845 32.376782 15.500392
2005-04-28 07:15:38 51°16.255 2°54.152 10.5441 3.610099 32.28981 17.28699
2005-04-28 07:15:42 51°16.255 2°54.151 10.5393 3.616632 32.355487 15.534101
2005-04-28 07:15:48 51°16.255 2°54.149 10.5415 3.616105 32.351672 16.511674
2005-04-28 07:15:53 51°16.255 2°54.147 10.5464 3.613471 32.326186 14.623947
2005-04-28 07:15:58 51°16.256 2°54.145 10.5446 3.613471 32.326186 14.623947
2005-04-28 07:16:03 51°16.256 2°54.144 10.5425 3.616211 32.354859 15.736358
2005-04-28 07:16:08 51°16.256 2°54.142 10.545 3.613893 32.33109 15.163298
2005-04-28 07:16:13 51°16.256 2°54.14 10.5444 3.614841 32.338384 17.657794
2005-04-28 07:16:18 51°16.256 2°54.138 10.5437 3.614946 32.339432 16.309418
2005-04-28 07:16:23 51°16.257 2°54.137 10.5438 3.614946 32.339432 15.702648
2005-04-28 07:16:28 51°16.257 2°54.135 10.5461 3.614946 32.339432 15.702648
2005-04-28 07:16:33 51°16.257 2°54.134 10.5444 3.608414 32.273759 15.702648
2005-04-28 07:16:39 51°16.257 2°54.132 10.5437 3.611153 32.300287 15.230717
2005-04-28 07:16:43 51°16.257 2°54.13 10.5455 3.610099 32.291233 12.972187
2005-04-28 07:16:48 51°16.258 2°54.128 10.5433 3.610416 32.293664 16.815059
2005-04-28 07:16:53 51°16.258 2°54.127 10.541 3.609257 32.281429 15.770067
2005-04-28 07:16:58 51°16.258 2°54.125 10.5427 3.609257 32.281429 15.770067
2005-04-28 07:17:03 51°16.259 2°54.123 10.5451 3.611259 32.302046 15.770067
2005-04-28 07:17:08 51°16.259 2°54.122 10.5416 3.613998 32.328576 15.567811
2005-04-28 07:17:13 51°16.259 2°54.12 10.547 3.606201 32.252471 14.286853
2005-04-28 07:17:18 51°16.259 2°54.119 10.5442 3.609257 32.281429 15.500392
2005-04-28 07:17:23 51°16.259 2°54.116 10.5429 3.606306 32.254229 15.230717
2005-04-28 07:17:28 51°16.259 2°54.115 10.5455 3.606306 32.254229 15.230717
2005-04-28 07:17:33 51°16.259 2°54.113 10.5444 3.612207 32.312899 14.927332
2005-04-28 07:17:38 51°16.26 2°54.111 10.5488 3.606728 32.25913 13.747503
2005-04-28 07:17:43 51°16.26 2°54.11 10.5418 3.611153 32.30171 16.545383
2005-04-28 07:17:48 51°16.26 2°54.108 10.5438 3.60894 32.280419 14.185725
2005-04-28 07:17:53 51°16.26 2°54.106 10.5447 3.611575 32.306613 15.770067
2005-04-28 07:17:58 51°16.261 2°54.104 10.5437 3.611575 32.306613 15.770067
2005-04-28 07:18:03 51°16.261 2°54.103 10.5433 3.608624 32.276565 15.500392
2005-04-28 07:18:08 51°16.261 2°54.101 10.5421 3.606938 32.259093 17.152153
2005-04-28 07:18:13 51°16.261 2°54.099 10.5437 3.605779 32.248281 15.06217
2005-04-28 07:18:18 51°16.262 2°54.097 10.5441 3.610416 32.294376 15.534101
2005-04-28 07:18:22 51°16.262 2°54.096 10.547 3.608835 32.279372 14.657657
2005-04-28 07:18:28 51°16.262 2°54.094 10.5464 3.608835 32.279372 14.657657
2005-04-28 07:18:32 51°16.262 2°54.092 10.5428 3.604937 32.240612 15.770067
2005-04-28 07:18:38 51°16.263 2°54.091 10.5435 3.609467 32.284946 14.859913
2005-04-28 07:18:43 51°16.263 2°54.089 10.5446 3.609994 32.290896 14.792494
2005-04-28 07:18:48 51°16.263 2°54.087 10.5428 3.599984 32.192095 15.466683
2005-04-28 07:18:53 51°16.263 2°54.085 10.5482 3.608098 32.272038 17.691503
2005-04-28 07:18:58 51°16.263 2°54.083 10.5454 3.608098 32.272038 17.691503
2005-04-28 07:19:03 51°16.264 2°54.082 10.5465 3.610205 32.291569 16.882477
2005-04-28 07:19:08 51°16.264 2°54.08 10.5446 3.610416 32.293664 16.275708
2005-04-28 07:19:12 51°16.264 2°54.079 10.5463 3.599984 32.190676 14.826204
2005-04-28 07:19:18 51°16.264 2°54.077 10.5489 3.606201 32.252471 16.140871
2005-04-28 07:19:23 51°16.264 2°54.075 10.5471 3.609994 32.290185 17.28699
2005-04-28 07:19:28 51°16.265 2°54.073 10.5459 3.609994 32.290185 17.28699
2005-04-28 07:19:32 51°16.265 2°54.072 10.5465 3.60894 32.279708 15.60152
2005-04-28 07:19:38 51°16.265 2°54.07 10.549 3.610837 32.297855 15.770067
2005-04-28 07:19:43 51°16.265 2°54.068 10.5461 3.609889 32.289137 15.197007
2005-04-28 07:19:49 51°16.266 2°54.066 10.5477 3.60167 32.207433 14.994751
2005-04-28 07:19:53 51°16.266 2°54.065 10.5478 3.601038 32.198312 16.208289
2005-04-28 07:19:58 51°16.266 2°54.063 10.5479 3.601038 32.198312 16.208289
2005-04-28 07:20:03 51°16.266 2°54.061 10.5466 3.608308 32.272001 16.006033
2005-04-28 07:20:08 51°16.266 2°54.06 10.548 3.605358 32.24196 16.680221
2005-04-28 07:20:13 51°16.267 2°54.058 10.5506 3.608624 32.274432 15.264426
2005-04-28 07:20:18 51°16.267 2°54.056 10.5448 3.600406 32.192738 18.129725
2005-04-28 07:20:23 51°16.267 2°54.055 10.5476 3.598509 32.175307 14.286853
2005-04-28 07:20:28 51°16.268 2°54.053 10.5439 3.598509 32.175307 14.286853
2005-04-28 07:20:33 51°16.268 2°54.051 10.5433 3.599563 32.184361 15.06217
2005-04-28 07:20:38 51°16.268 2°54.049 10.5433 3.606306 32.250677 15.567811
2005-04-28 07:20:43 51°16.268 2°54.048 10.5447 3.607781 32.266052 15.298136
2005-04-28 07:20:48 51°16.269 2°54.046 10.5415 3.607887 32.266389 16.815059
2005-04-28 07:20:53 51°16.269 2°54.045 10.543 3.60599 32.247535 15.095879
2005-04-28 07:20:58 51°16.269 2°54.043 10.5404 3.60599 32.247535 15.095879
2005-04-28 07:21:04 51°16.269 2°54.041 10.5429 3.601143 32.199359 15.163298
2005-04-28 07:21:08 51°16.27 2°54.039 10.5453 3.60599 32.251087 14.590238
2005-04-28 07:21:13 51°16.27 2°54.038 10.5416 3.602513 32.216521 17.28699
2005-04-28 07:21:18 51°16.27 2°54.036 10.5429 3.606622 32.258082 15.837486
2005-04-28 07:21:23 51°16.27 2°54.034 10.5408 3.606201 32.253182 15.331845
2005-04-28 07:21:28 51°16.271 2°54.033 10.5439 3.606201 32.253182 15.331845
2005-04-28 07:21:32 51°16.271 2°54.032 10.5425 3.605569 32.247607 16.073452
2005-04-28 07:21:38 51°16.271 2°54.029 10.5455 3.606622 32.258082 15.803777
2005-04-28 07:21:43 51°16.271 2°54.027 10.5439 3.606201 32.254603 14.522819
2005-04-28 07:21:48 51°16.271 2°54.026 10.5427 3.607044 32.262273 15.331845
2005-04-28 07:21:52 51°16.271 2°54.024 10.5408 3.606517 32.257746 15.264426
2005-04-28 07:21:58 51°16.272 2°54.023 10.5433 3.606517 32.257746 15.264426
2005-04-28 07:22:03 51°16.272 2°54.021 10.5395 3.599774 32.19 14.556529
2005-04-28 07:22:08 51°16.272 2°54.019 10.5405 3.60462 32.238179 17.725212
2005-04-28 07:22:13 51°16.272 2°54.017 10.5416 3.601881 32.211656 15.938614
2005-04-28 07:22:18 51°16.273 2°54.016 10.5407 3.607044 32.262273 14.792494
2005-04-28 07:22:23 51°16.273 2°54.015 10.5414 3.603883 32.231557 15.230717
2005-04-28 07:22:28 51°16.273 2°54.013 10.5433 3.603883 32.231557 15.230717
2005-04-28 07:22:33 51°16.273 2°54.011 10.5464 3.601881 32.213075 17.556665
2005-04-28 07:22:38 51°16.273 2°54.009 10.5431 3.608519 32.278362 15.702648
2005-04-28 07:22:43 51°16.274 2°54.008 10.5455 3.603778 32.23193 15.466683
2005-04-28 07:22:48 51°16.274 2°54.006 10.5441 3.605042 32.2445 15.331845
2005-04-28 07:22:53 51°16.274 2°54.005 10.5439 3.606201 32.255313 16.107161
2005-04-28 07:22:58 51°16.274 2°54.003 10.5451 3.606201 32.255313 16.107161
2005-04-28 07:23:03 51°16.274 2°54.002 10.5444 3.598509 32.178851 17.253281
2005-04-28 07:23:08 51°16.275 2°54.001 10.5498 3.60009 32.194561 14.792494
2005-04-28 07:23:13 51°16.275 2°54.001 10.5439 3.597982 32.172198 14.859913
2005-04-28 07:23:18 51°16.276 2°54.001 10.5458 3.607044 32.262273 15.837486
2005-04-28 07:23:23 51°16.277 2°54.002 10.5415 3.603251 32.224562 16.579093
2005-04-28 07:23:28 51°16.279 2°54.004 10.5439 3.603251 32.224562 16.579093
2005-04-28 07:23:33 51°16.281 2°54.008 10.5469 3.608519 32.276229 14.792494
2005-04-28 07:23:38 51°16.284 2°54.012 10.5422 3.606622 32.257372 18.365691
2005-04-28 07:23:43 51°16.288 2°54.016 10.5397 3.60304 32.218919 16.680221
2005-04-28 07:23:48 51°16.293 2°54.02 10.5396 3.604515 32.235712 16.579093
2005-04-28 07:23:53 51°16.298 2°54.023 10.5391 3.60736 32.265416 15.60152
2005-04-28 07:23:58 51°16.304 2°54.025 10.5356 3.60736 32.265416 15.60152
2005-04-28 07:24:03 51°16.312 2°54.026 10.5364 3.606412 32.256698 15.567811
2005-04-28 07:24:08 51°16.321 2°54.025 10.5399 3.603461 32.228077 16.073452
2005-04-28 07:24:13 51°16.329 2°54.023 10.537 3.607044 32.263694 14.590238
2005-04-28 07:24:18 51°16.337 2°54.019 10.5351 3.607149 32.266875 15.972324
2005-04-28 07:24:24 51°16.348 2°54.011 10.5378 3.602197 32.219767 16.680221
2005-04-28 07:24:28 51°16.356 2°54.003 10.5356 3.602197 32.219767 16.680221
2005-04-28 07:24:33 51°16.365 2°53.994 10.5363 3.606201 32.260289 18.331982
2005-04-28 07:24:38 51°16.373 2°53.984 10.532 3.60578 32.258941 15.63523
2005-04-28 07:24:43 51°16.384 2°53.972 10.5327 3.606201 32.262421 17.28699
2005-04-28 07:24:48 51°16.394 2°53.96 10.5323 3.597456 32.176886 16.343127
2005-04-28 07:24:53 51°16.405 2°53.946 10.5351 3.602303 32.226495 15.904905
2005-04-28 07:24:58 51°16.416 2°53.93 10.5367 3.602303 32.226495 15.904905
2005-04-28 07:25:03 51°16.426 2°53.915 10.5291 3.599247 32.193984 17.590375
2005-04-28 07:25:08 51°16.439 2°53.895 10.5361 3.606306 32.264891 16.882477
2005-04-28 07:25:13 51°16.451 2°53.875 10.5392 3.6101 32.302619 16.815059
2005-04-28 07:25:18 51°16.464 2°53.855 10.5336 3.603567 32.239069 18.062306
2005-04-28 07:25:22 51°16.474 2°53.837 10.5363 3.605042 32.25516 17.152153
2005-04-28 07:25:28 51°16.488 2°53.811 10.5389 3.605042 32.25516 17.152153
2005-04-28 07:25:32 51°16.498 2°53.794 10.5441 3.604937 32.252691 18.129725
2005-04-28 07:25:38 51°16.512 2°53.769 10.54 3.60304 32.23383 18.567947
2005-04-28 07:25:43 51°16.527 2°53.745 10.5408 3.60441 32.247451 16.410546
2005-04-28 07:25:48 51°16.54 2°53.722 10.5453 3.602935 32.232072 18.702785
2005-04-28 07:25:53 51°16.553 2°53.7 10.5458 3.596824 32.170601 18.096016
2005-04-28 07:25:58 51°16.567 2°53.677 10.5369 3.596824 32.170601 18.096016
2005-04-28 07:26:03 51°16.58 2°53.655 10.545 3.599352 32.196451 15.837486
2005-04-28 07:26:08 51°16.593 2°53.632 10.5394 3.595454 32.15415 16.039742
2005-04-28 07:26:13 51°16.606 2°53.609 10.5345 3.595243 32.150639 16.275708
2005-04-28 07:26:18 51°16.618 2°53.589 10.539 3.598509 32.183106 16.612802
2005-04-28 07:26:22 51°16.631 2°53.569 10.5386 3.600195 32.196317 16.71393
2005-04-28 07:26:28 51°16.647 2°53.542 10.532 3.600195 32.196317 16.71393
2005-04-28 07:26:33 51°16.66 2°53.519 10.5313 3.59735 32.168041 17.624084
2005-04-28 07:26:38 51°16.672 2°53.499 10.5292 3.598931 32.184458 14.994751
2005-04-28 07:26:43 51°16.686 2°53.474 10.5289 3.598931 32.185877 15.264426
2005-04-28 07:26:48 51°16.7 2°53.451 10.5282 3.602302 32.220815 15.904905
2005-04-28 07:26:53 51°16.714 2°53.429 10.5281 3.600617 32.204764 16.006033
2005-04-28 07:26:58 51°16.727 2°53.406 10.5267 3.600617 32.204764 16.006033
2005-04-28 07:27:03 51°16.74 2°53.383 10.524 3.602197 32.221897 15.399264
2005-04-28 07:27:08 51°16.753 2°53.36 10.5215 3.595665 32.159788 18.230853
2005-04-28 07:27:13 51°16.767 2°53.337 10.5207 3.599563 32.199965 16.579093
2005-04-28 07:27:18 51°16.78 2°53.315 10.5165 3.60009 32.205913 16.309418
2005-04-28 07:27:23 51°16.793 2°53.292 10.5168 3.596508 32.171713 15.60152
2005-04-28 07:27:28 51°16.806 2°53.269 10.5134 3.596508 32.171713 15.60152
2005-04-28 07:27:33 51°16.82 2°53.246 10.5136 3.596297 32.170327 16.680221
2005-04-28 07:27:38 51°16.833 2°53.224 10.5107 3.601354 32.222037 15.938614
2005-04-28 07:27:43 51°16.846 2°53.204 10.5076 3.598826 32.199019 16.579093
2005-04-28 07:27:48 51°16.86 2°53.18 10.5074 3.60441 32.255982 15.904905
2005-04-28 07:27:53 51°16.873 2°53.157 10.508 3.604094 32.255682 16.275708
2005-04-28 07:27:58 51°16.886 2°53.136 10.5066 3.604094 32.255682 16.275708
2005-04-28 07:28:03 51°16.899 2°53.115 10.4978 3.598088 32.196652 16.646512
2005-04-28 07:28:08 51°16.911 2°53.094 10.5068 3.602935 32.247707 19.343264
2005-04-28 07:28:13 51°16.923 2°53.076 10.5014 3.599142 32.210683 18.331982
2005-04-28 07:28:17 51°16.935 2°53.058 10.5028 3.599774 32.219814 18.803913
2005-04-28 07:28:24 51°16.952 2°53.033 10.4938 3.601776 32.241864 17.86005
2005-04-28 07:28:28 51°16.965 2°53.016 10.493 3.601776 32.241864 17.86005
2005-04-28 07:28:33 51°16.979 2°52.996 10.4916 3.594927 32.175148 18.871332
2005-04-28 07:28:38 51°16.991 2°52.978 10.4897 3.594822 32.174809 16.343127
2005-04-28 07:28:43 51°17.006 2°52.956 10.4841 3.594927 32.177277 17.421828
2005-04-28 07:28:48 51°17.019 2°52.935 10.4846 3.595033 32.179035 19.646648
2005-04-28 07:28:54 51°17.033 2°52.911 10.4793 3.599247 32.221679 17.792631
2005-04-28 07:28:58 51°17.045 2°52.89 10.477 3.599247 32.221679 17.792631
2005-04-28 07:29:03 51°17.056 2°52.866 10.4781 3.595138 32.185053 19.141007
2005-04-28 07:29:08 51°17.068 2°52.841 10.4793 3.595876 32.193102 16.680221
2005-04-28 07:29:12 51°17.077 2°52.821 10.4792 3.598405 32.222531 15.904905
2005-04-28 07:29:18 51°17.091 2°52.793 10.4797 3.601671 32.257179 17.994888
2005-04-28 07:29:23 51°17.104 2°52.766 10.4837 3.606096 32.305517 18.43311
2005-04-28 07:29:29 51°17.118 2°52.739 10.4849 3.606096 32.305517 18.43311
2005-04-28 07:29:33 51°17.129 2°52.718 10.4867 3.607782 32.32516 17.28699
2005-04-28 07:29:38 51°17.142 2°52.694 10.4912 3.610206 32.35287 18.601657
2005-04-28 07:29:43 51°17.156 2°52.671 10.4926 3.604305 32.293382 18.635366
2005-04-28 07:29:48 51°17.169 2°52.649 10.4967 3.607466 32.324866 16.376836
2005-04-28 07:29:54 51°17.184 2°52.626 10.4976 3.601144 32.260478 20.320836
2005-04-28 07:29:58 51°17.195 2°52.608 10.4958 3.601144 32.260478 20.320836
2005-04-28 07:30:03 51°17.21 2°52.583 10.4942 3.609889 32.344009 16.983606
2005-04-28 07:30:08 51°17.223 2°52.56 10.4967 3.604094 32.285581 16.006033
2005-04-28 07:30:13 51°17.236 2°52.537 10.4982 3.609784 32.33939 17.927469
2005-04-28 07:30:18 51°17.248 2°52.516 10.4975 3.610311 32.343209 17.185862
2005-04-28 07:30:23 51°17.262 2°52.491 10.5026 3.613577 32.37217 17.86005
2005-04-28 07:30:28 51°17.276 2°52.468 10.5023 3.613577 32.37217 17.86005
2005-04-28 07:30:32 51°17.287 2°52.45 10.5038 3.606939 32.305355 17.388118
2005-04-28 07:30:38 51°17.303 2°52.422 10.5059 3.608414 32.320042 18.163435
2005-04-28 07:30:44 51°17.319 2°52.399 10.5079 3.610627 32.342075 18.938751
2005-04-28 07:30:48 51°17.332 2°52.38 10.5124 3.614315 32.378801 16.241999
2005-04-28 07:30:53 51°17.347 2°52.359 10.5143 3.620848 32.443873 16.107161
2005-04-28 07:30:58 51°17.362 2°52.339 10.5164 3.620848 32.443873 16.107161
2005-04-28 07:31:03 51°17.375 2°52.321 10.5161 3.622639 32.458854 16.815059
2005-04-28 07:31:09 51°17.393 2°52.296 10.5193 3.618635 32.417538 15.837486
2005-04-28 07:31:13 51°17.405 2°52.28 10.5163 3.614209 32.369895 17.994888
2005-04-28 07:31:18 51°17.421 2°52.257 10.5218 3.619267 32.418113 16.848768
2005-04-28 07:31:23 51°17.436 2°52.236 10.5144 3.61716 32.39427 17.219571
2005-04-28 07:31:28 51°17.45 2°52.215 10.5172 3.61716 32.39427 17.219571
2005-04-28 07:31:33 51°17.464 2°52.194 10.5134 3.621585 32.436906 17.152153
2005-04-28 07:31:38 51°17.477 2°52.175 10.5145 3.628434 32.502969 18.129725
2005-04-28 07:31:43 51°17.493 2°52.152 10.511 3.630541 32.523243 15.871195
2005-04-28 07:31:49 51°17.509 2°52.129 10.5067 3.632649 32.543518 17.354409
2005-04-28 07:31:53 51°17.522 2°52.11 10.502 3.633386 32.54943 16.983606
2005-04-28 07:31:58 51°17.537 2°52.089 10.5008 3.633386 32.54943 16.983606
2005-04-28 07:32:03 51°17.551 2°52.069 10.4981 3.639498 32.611758 15.837486
2005-04-28 07:32:08 51°17.566 2°52.048 10.4936 3.640341 32.620877 12.938477
2005-04-28 07:32:13 51°17.58 2°52.027 10.4869 3.636021 32.579266 15.63523
2005-04-28 07:32:18 51°17.594 2°52.009 10.4883 3.645188 32.672068 13.511537
2005-04-28 07:32:22 51°17.607 2°51.99 10.4914 3.641605 32.639957 14.48911
2005-04-28 07:32:28 51°17.624 2°51.966 10.4841 3.641605 32.639957 14.48911
2005-04-28 07:32:33 51°17.639 2°51.945 10.4882 3.650773 32.734244 14.927332
2005-04-28 07:32:38 51°17.653 2°51.925 10.4867 3.646663 32.69615 14.421691
2005-04-28 07:32:43 51°17.666 2°51.907 10.4823 3.651616 32.748431 14.421691
2005-04-28 07:32:48 51°17.682 2°51.884 10.4785 3.648771 32.723664 15.432973
2005-04-28 07:32:53 51°17.697 2°51.864 10.4778 3.654672 32.785427 13.814922
2005-04-28 07:32:58 51°17.711 2°51.843 10.4688 3.654672 32.785427 13.814922
2005-04-28 07:33:04 51°17.727 2°51.821 10.455 3.653829 32.777739 14.792494
2005-04-28 07:33:08 51°17.74 2°51.802 10.442 3.651721 32.758157 12.668802
2005-04-28 07:33:13 51°17.754 2°51.781 10.4416 3.652986 32.771498 14.657657
2005-04-28 07:33:18 51°17.766 2°51.762 10.4313 3.655831 32.802061 13.34299
2005-04-28 07:33:22 51°17.779 2°51.744 10.4198 3.649719 32.743242 14.421691
2005-04-28 07:33:28 51°17.796 2°51.719 10.4124 3.649719 32.743242 14.421691
2005-04-28 07:33:33 51°17.811 2°51.698 10.4064 3.651616 32.765786 13.713794
2005-04-28 07:33:38 51°17.825 2°51.677 10.4034 3.656253 32.818585 14.354272
2005-04-28 07:33:43 51°17.838 2°51.659 10.392 3.654777 32.815453 17.084734
2005-04-28 07:33:49 51°17.855 2°51.634 10.3926 3.650247 32.777447 15.06217
2005-04-28 07:33:53 51°17.868 2°51.615 10.3868 3.644346 32.725752 13.983469
2005-04-28 07:33:58 51°17.883 2°51.595 10.3845 3.644346 32.725752 13.983469
2005-04-28 07:34:03 51°17.898 2°51.575 10.3783 3.64835 32.775165 15.702648
2005-04-28 07:34:08 51°17.912 2°51.554 10.3685 3.642449 32.722724 15.770067
2005-04-28 07:34:13 51°17.927 2°51.533 10.3682 3.646032 32.766494 14.219435
2005-04-28 07:34:18 51°17.94 2°51.514 10.3511 3.644241 32.754387 15.668939
2005-04-28 07:34:22 51°17.953 2°51.494 10.3395 3.639288 32.7114 16.815059
2005-04-28 07:34:28 51°17.97 2°51.469 10.3239 3.639288 32.7114 16.815059
2005-04-28 07:34:33 51°17.984 2°51.449 10.3258 3.64266 32.751633 16.983606
2005-04-28 07:34:38 51°17.998 2°51.427 10.3171 3.641923 32.748607 14.859913
2005-04-28 07:34:43 51°18.014 2°51.403 10.3141 3.640869 32.744594 15.60152
2005-04-28 07:34:48 51°18.029 2°51.382 10.302 3.634863 32.691767 15.298136
2005-04-28 07:34:53 51°18.042 2°51.363 10.3005 3.635285 32.704676 17.691503
2005-04-28 07:34:58 51°18.057 2°51.343 10.3046 3.635285 32.704676 17.691503
2005-04-28 07:35:03 51°18.073 2°51.32 10.2997 3.630016 32.663551 16.74764
2005-04-28 07:35:08 51°18.088 2°51.299 10.2955 3.634864 32.722211 15.803777
2005-04-28 07:35:13 51°18.102 2°51.28 10.2909 3.635707 32.738636 17.792631
2005-04-28 07:35:18 51°18.117 2°51.259 10.2878 3.631808 32.7054 16.579093
2005-04-28 07:35:23 51°18.134 2°51.237 10.2872 3.624011 32.63312 16.882477
2005-04-28 07:35:28 51°18.149 2°51.217 10.2812 3.624011 32.63312 16.882477
2005-04-28 07:35:33 51°18.163 2°51.199 10.2814 3.626961 32.667737 17.927469
2005-04-28 07:35:38 51°18.18 2°51.177 10.281 3.632651 32.727637 17.624084
2005-04-28 07:35:42 51°18.191 2°51.163 10.2741 3.633283 32.737605 16.949896
2005-04-28 07:35:48 51°18.21 2°51.138 10.2797 3.634759 32.756023 18.096016
2005-04-28 07:35:53 51°18.225 2°51.12 10.2792 3.628647 32.698411 16.309418
2005-04-28 07:35:58 51°18.237 2°51.103 10.2773 3.628647 32.698411 16.309418
2005-04-28 07:36:03 51°18.252 2°51.085 10.2765 3.629174 32.705142 19.141007
2005-04-28 07:36:08 51°18.263 2°51.071 10.2777 3.623063 32.648981 17.691503
2005-04-28 07:36:13 51°18.275 2°51.057 10.2786 3.622114 32.640928 15.837486
2005-04-28 07:36:18 51°18.287 2°51.045 10.2853 3.634443 32.767405 17.388118
2005-04-28 07:36:23 51°18.299 2°51.036 10.29 3.644242 32.865681 17.421828
2005-04-28 07:36:28 51°18.312 2°51.028 10.29 3.644242 32.865681 17.421828
2005-04-28 07:36:33 51°18.324 2°51.023 10.2866 3.644242 32.867871 14.657657
2005-04-28 07:36:38 51°18.335 2°51.019 10.2788 3.644242 32.868602 15.129589
2005-04-28 07:36:42 51°18.342 2°51.017 10.2758 3.644558 32.871773 14.927332
2005-04-28 07:36:48 51°18.356 2°51.014 10.2734 3.644874 32.872753 15.770067
2005-04-28 07:36:53 51°18.366 2°51.013 10.2753 3.645191 32.872273 14.522819
2005-04-28 07:36:58 51°18.377 2°51.013 10.2722 3.645191 32.872273 14.522819
2005-04-28 07:37:03 51°18.387 2°51.013 10.276 3.645612 32.87285 15.770067
2005-04-28 07:37:08 51°18.397 2°51.014 10.2719 3.646033 32.876348 14.219435
2005-04-28 07:37:13 51°18.405 2°51.015 10.2729 3.646982 32.889511 15.129589
2005-04-28 07:37:18 51°18.415 2°51.016 10.2752 3.647298 32.896335 15.938614
2005-04-28 07:37:23 51°18.425 2°51.019 10.2776 3.647825 32.905276 15.399264
2005-04-28 07:37:28 51°18.433 2°51.021 10.2753 3.647825 32.905276 15.399264
2005-04-28 07:37:32 51°18.439 2°51.023 10.2821 3.648246 32.910236 14.927332
2005-04-28 07:37:37 51°18.446 2°51.026 10.2821 3.648668 32.915928 16.006033
2005-04-28 07:37:43 51°18.453 2°51.029 10.2786 3.648879 32.918774 15.365554
2005-04-28 07:37:48 51°18.458 2°51.032 10.2832 3.6493 32.923735 13.208153
2005-04-28 07:37:53 51°18.462 2°51.035 10.2823 3.649406 32.924061 16.241999
2005-04-28 07:37:58 51°18.466 2°51.038 10.277 3.649406 32.924061 16.241999
2005-04-28 07:38:02 51°18.468 2°51.039 10.2774 3.649827 32.926096 15.163298
2005-04-28 07:38:08 51°18.471 2°51.041 10.2771 3.650038 32.928211 12.80364
2005-04-28 07:38:13 51°18.472 2°51.042 10.2779 3.650565 32.931303 15.904905
2005-04-28 07:38:18 51°18.473 2°51.041 10.2735 3.651197 32.937647 15.938614
2005-04-28 07:38:23 51°18.473 2°51.039 10.2781 3.651724 32.942202 15.63523
2005-04-28 07:38:28 51°18.474 2°51.037 10.2729 3.651724 32.942202 15.63523
2005-04-28 07:38:33 51°18.475 2°51.036 10.2774 3.652672 32.951719 13.578956
2005-04-28 07:38:38 51°18.476 2°51.033 10.2785 3.653515 32.960911 15.230717
2005-04-28 07:38:43 51°18.476 2°51.031 10.2762 3.654042 32.965466 16.039742
2005-04-28 07:38:48 51°18.477 2°51.029 10.271 3.654885 32.976123 17.051024
2005-04-28 07:38:53 51°18.477 2°51.027 10.2697 3.655412 32.982144 15.197007
2005-04-28 07:38:58 51°18.478 2°51.026 10.2708 3.655412 32.982144 15.197007
2005-04-28 07:39:03 51°18.478 2°51.024 10.2682 3.655517 32.983202 14.859913
2005-04-28 07:39:08 51°18.479 2°51.023 10.2687 3.655939 32.988165 16.949896
2005-04-28 07:39:13 51°18.48 2°51.021 10.2662 3.656044 32.989956 16.17458
2005-04-28 07:39:18 51°18.48 2°51.02 10.2652 3.656044 32.991422 14.387982
2005-04-28 07:39:23 51°18.48 2°51.017 10.2643 3.656255 32.995004 15.736358
2005-04-28 07:39:28 51°18.481 2°51.015 10.264 3.656255 32.995004 15.736358
2005-04-28 07:39:33 51°18.481 2°51.014 10.2628 3.656676 32.999969 13.511537
2005-04-28 07:39:38 51°18.482 2°51.012 10.2612 3.656782 33.00176 14.152016
2005-04-28 07:39:43 51°18.482 2°51.01 10.2636 3.656887 33.003551 13.91605
2005-04-28 07:39:48 51°18.483 2°51.008 10.2675 3.657098 33.007134 12.062033
2005-04-28 07:39:53 51°18.483 2°51.007 10.2661 3.657519 33.013567 15.163298
2005-04-28 07:39:58 51°18.484 2°51.005 10.2645 3.657519 33.013567 15.163298
2005-04-28 07:40:03 51°18.484 2°51.003 10.2666 3.657519 33.014301 13.949759
2005-04-28 07:40:08 51°18.485 2°51.001 10.2647 3.657519 33.015769 13.241862
2005-04-28 07:40:13 51°18.485 2°51 10.2644 3.65773 33.018619 14.691366
2005-04-28 07:40:18 51°18.486 2°50.998 10.2652 3.657625 33.017561 15.06217
2005-04-28 07:40:23 51°18.486 2°50.996 10.2712 3.657519 33.015769 15.331845
2005-04-28 07:40:28 51°18.487 2°50.994 10.2623 3.657519 33.015769 15.331845
2005-04-28 07:40:33 51°18.487 2°50.993 10.2618 3.657941 33.018533 14.421691
2005-04-28 07:40:38 51°18.488 2°50.991 10.2649 3.657941 33.018533 13.241862
2005-04-28 07:40:43 51°18.488 2°50.989 10.2629 3.657836 33.018209 15.230717
2005-04-28 07:40:48 51°18.489 2°50.988 10.2612 3.657941 33.018533 15.197007
2005-04-28 07:40:53 51°18.489 2°50.986 10.2615 3.658362 33.0235 13.444118
2005-04-28 07:40:58 51°18.49 2°50.984 10.2627 3.658362 33.0235 13.444118
2005-04-28 07:41:03 51°18.49 2°50.983 10.2582 3.655939 32.997697 13.039606
2005-04-28 07:41:08 51°18.491 2°50.981 10.259 3.656255 33.000871 13.680084
2005-04-28 07:41:12 51°18.491 2°50.979 10.2588 3.658362 33.022766 15.736358
2005-04-28 07:41:18 51°18.492 2°50.977 10.2573 3.658468 33.026026 16.545383
2005-04-28 07:41:23 51°18.492 2°50.976 10.2597 3.651724 32.957578 12.601383
2005-04-28 07:41:28 51°18.493 2°50.974 10.2606 3.651724 32.957578 12.601383
2005-04-28 07:41:32 51°18.493 2°50.973 10.2584 3.656255 33.003071 14.961042
2005-04-28 07:41:38 51°18.494 2°50.971 10.2577 3.658784 33.030669 13.91605
2005-04-28 07:41:43 51°18.495 2°50.969 10.2573 3.6591 33.034579 14.691366
2005-04-28 07:41:48 51°18.495 2°50.967 10.2614 3.657625 33.020497 16.140871
2005-04-28 07:41:52 51°18.495 2°50.966 10.2595 3.65752 33.020906 12.163161
2005-04-28 07:41:58 51°18.496 2°50.964 10.2619 3.65752 33.020906 12.163161
2005-04-28 07:42:03 51°18.496 2°50.963 10.2588 3.657309 33.018056 17.084734
2005-04-28 07:42:08 51°18.497 2°50.961 10.257 3.657309 33.018056 14.893623
2005-04-28 07:42:13 51°18.497 2°50.959 10.2572 3.657414 33.01838 15.197007
2005-04-28 07:42:18 51°18.498 2°50.958 10.2612 3.657941 33.024406 15.534101
2005-04-28 07:42:23 51°18.498 2°50.956 10.2636 3.65752 33.020172 13.444118
2005-04-28 07:42:28 51°18.499 2°50.954 10.2597 3.65752 33.020172 13.444118
2005-04-28 07:42:33 51°18.499 2°50.953 10.2618 3.658152 33.025788 15.129589
2005-04-28 07:42:38 51°18.499 2°50.951 10.263 3.65773 33.020087 15.331845
2005-04-28 07:42:43 51°18.5 2°50.949 10.2633 3.658046 33.025464 17.354409
2005-04-28 07:42:48 51°18.501 2°50.948 10.2608 3.658889 33.034665 15.331845
2005-04-28 07:42:52 51°18.501 2°50.947 10.2628 3.6591 33.036782 14.826204
2005-04-28 07:42:58 51°18.501 2°50.945 10.2675 3.6591 33.036782 14.826204
2005-04-28 07:43:03 51°18.502 2°50.943 10.2643 3.659311 33.036695 17.354409
2005-04-28 07:43:08 51°18.503 2°50.942 10.2639 3.659205 33.035637 16.073452
2005-04-28 07:43:13 51°18.503 2°50.94 10.2674 3.659205 33.034168 16.107161
2005-04-28 07:43:18 51°18.504 2°50.938 10.2683 3.659311 33.035226 17.455537
2005-04-28 07:43:23 51°18.504 2°50.937 10.2693 3.6591 33.033844 15.803777
2005-04-28 07:43:28 51°18.505 2°50.935 10.27 3.6591 33.033844 15.803777
2005-04-28 07:43:33 51°18.506 2°50.934 10.2683 3.659205 33.034902 15.02846
2005-04-28 07:43:38 51°18.506 2°50.932 10.2709 3.659416 33.034816 15.972324
2005-04-28 07:43:43 51°18.507 2°50.93 10.2744 3.659311 33.033024 13.747503
2005-04-28 07:43:48 51°18.507 2°50.929 10.2697 3.659416 33.034816 15.904905
2005-04-28 07:43:52 51°18.507 2°50.928 10.2702 3.6591 33.028705 16.983606
2005-04-28 07:43:58 51°18.508 2°50.926 10.2703 3.6591 33.028705 16.983606
2005-04-28 07:44:03 51°18.508 2°50.924 10.2693 3.659205 33.029763 17.489247
2005-04-28 07:44:08 51°18.509 2°50.923 10.2722 3.659311 33.030821 16.781349
2005-04-28 07:44:13 51°18.509 2°50.922 10.2777 3.659522 33.032203 16.916187
2005-04-28 07:44:18 51°18.51 2°50.92 10.2748 3.659205 33.026827 15.534101
2005-04-28 07:44:23 51°18.51 2°50.919 10.2775 3.659521 33.030735 17.051024
2005-04-28 07:44:28 51°18.511 2°50.918 10.2743 3.659521 33.030735 17.051024
2005-04-28 07:44:33 51°18.511 2°50.917 10.2744 3.658995 33.026913 15.972324
2005-04-28 07:44:38 51°18.512 2°50.916 10.2787 3.658889 33.025855 16.140871
2005-04-28 07:44:43 51°18.512 2°50.914 10.2762 3.658573 33.021213 15.972324
2005-04-28 07:44:48 51°18.513 2°50.913 10.2731 3.658995 33.022509 16.646512
2005-04-28 07:44:52 51°18.513 2°50.913 10.2791 3.6591 33.022833 16.444255
2005-04-28 07:44:58 51°18.513 2°50.911 10.2769 3.6591 33.022833 16.444255
2005-04-28 07:45:03 51°18.514 2°50.91 10.2794 3.658995 33.021775 15.365554
2005-04-28 07:45:08 51°18.514 2°50.909 10.2744 3.658995 33.021775 15.129589
2005-04-28 07:45:13 51°18.514 2°50.908 10.2733 3.6591 33.0221 14.623947
2005-04-28 07:45:18 51°18.515 2°50.907 10.2735 3.658889 33.019984 14.219435
2005-04-28 07:45:23 51°18.515 2°50.907 10.2745 3.658889 33.021451 14.152016
2005-04-28 07:45:28 51°18.516 2°50.906 10.2735 3.658889 33.021451 14.152016
2005-04-28 07:45:33 51°18.516 2°50.906 10.2771 3.658889 33.01925 16.073452
2005-04-28 07:45:38 51°18.517 2°50.905 10.2745 3.6591 33.021366 16.949896
2005-04-28 07:45:43 51°18.517 2°50.904 10.2739 3.658889 33.01925 17.388118
2005-04-28 07:45:48 51°18.517 2°50.904 10.2759 3.658573 33.01681 14.48911
2005-04-28 07:45:52 51°18.518 2°50.903 10.2765 3.658468 33.01722 13.511537
2005-04-28 07:45:58 51°18.518 2°50.903 10.2742 3.658468 33.01722 13.511537
2005-04-28 07:46:03 51°18.519 2°50.903 10.2758 3.658468 33.017953 14.4554
2005-04-28 07:46:08 51°18.519 2°50.902 10.274 3.658678 33.019335 16.781349
2005-04-28 07:46:13 51°18.52 2°50.902 10.2772 3.658678 33.018602 13.444118
2005-04-28 07:46:18 51°18.52 2°50.902 10.2743 3.658678 33.018602 15.736358
2005-04-28 07:46:23 51°18.521 2°50.902 10.2754 3.658573 33.01681 14.994751
2005-04-28 07:46:28 51°18.521 2°50.902 10.2744 3.658573 33.01681 14.994751
2005-04-28 07:46:33 51°18.522 2°50.901 10.2771 3.658468 33.016486 15.972324
2005-04-28 07:46:38 51°18.522 2°50.901 10.2761 3.658784 33.018926 15.904905
2005-04-28 07:46:43 51°18.523 2°50.901 10.2791 3.658678 33.018602 16.74764
2005-04-28 07:46:48 51°18.524 2°50.902 10.2748 3.658257 33.013636 16.006033
2005-04-28 07:46:53 51°18.524 2°50.902 10.279 3.658362 33.016162 15.871195
2005-04-28 07:46:58 51°18.525 2°50.902 10.2815 3.658362 33.016162 15.871195
2005-04-28 07:47:03 51°18.525 2°50.902 10.2776 3.658468 33.015752 15.871195
2005-04-28 07:47:08 51°18.526 2°50.902 10.2794 3.658362 33.015428 15.399264
2005-04-28 07:47:12 51°18.526 2°50.902 10.281 3.658152 33.012579 15.298136
2005-04-28 07:47:18 51°18.527 2°50.903 10.277 3.658257 33.013636 14.4554
2005-04-28 07:47:23 51°18.528 2°50.904 10.2775 3.658468 33.014285 16.17458
2005-04-28 07:47:28 51°18.529 2°50.904 10.277 3.658468 33.014285 16.17458
2005-04-28 07:47:33 51°18.53 2°50.904 10.28 3.658257 33.012169 14.792494
2005-04-28 07:47:38 51°18.53 2°50.905 10.2773 3.658468 33.014285 14.320563
2005-04-28 07:47:43 51°18.531 2°50.906 10.281 3.658046 33.008587 16.073452
2005-04-28 07:47:48 51°18.531 2°50.906 10.2814 3.658468 33.012818 11.354136
2005-04-28 07:47:53 51°18.532 2°50.907 10.2786 3.658362 33.01176 15.095879
2005-04-28 07:47:58 51°18.533 2°50.907 10.2805 3.658362 33.01176 15.095879
2005-04-28 07:48:03 51°18.533 2°50.908 10.2846 3.658362 33.011027 14.826204
2005-04-28 07:48:08 51°18.534 2°50.909 10.2783 3.658468 33.012818 15.803777
2005-04-28 07:48:13 51°18.535 2°50.91 10.2807 3.653726 32.965223 15.500392
2005-04-28 07:48:18 51°18.535 2°50.911 10.2809 3.658257 33.009969 16.275708
2005-04-28 07:48:22 51°18.536 2°50.911 10.2827 3.658152 33.009645 15.63523
2005-04-28 07:48:28 51°18.537 2°50.912 10.2797 3.658152 33.009645 15.63523
2005-04-28 07:48:33 51°18.537 2°50.913 10.2784 3.658152 33.008911 15.63523
2005-04-28 07:48:38 51°18.538 2°50.914 10.278 3.658046 33.006387 16.140871
2005-04-28 07:48:43 51°18.538 2°50.915 10.2768 3.657941 33.005329 15.534101
2005-04-28 07:48:48 51°18.539 2°50.916 10.2761 3.65773 33.003214 15.567811
2005-04-28 07:48:53 51°18.54 2°50.917 10.2785 3.65773 33.003947 14.927332
2005-04-28 07:48:58 51°18.54 2°50.918 10.2746 3.65773 33.003947 14.927332
2005-04-28 07:49:03 51°18.541 2°50.919 10.2773 3.657414 33.001507 13.848631
2005-04-28 07:49:08 51°18.541 2°50.92 10.2764 3.657203 32.998659 16.848768
2005-04-28 07:49:13 51°18.542 2°50.921 10.279 3.656992 32.998009 15.197007
2005-04-28 07:49:18 51°18.543 2°50.922 10.2797 3.656571 32.994512 12.668802
2005-04-28 07:49:24 51°18.543 2°50.923 10.279 3.65636 32.993129 15.331845
2005-04-28 07:49:28 51°18.544 2°50.924 10.2764 3.65636 32.993129 15.331845
2005-04-28 07:49:33 51°18.545 2°50.925 10.2782 3.656255 32.992805 15.837486
2005-04-28 07:49:38 51°18.545 2°50.925 10.2794 3.656466 32.994187 17.590375
2005-04-28 07:49:43 51°18.545 2°50.926 10.2763 3.655728 32.987516 15.02846
2005-04-28 07:49:49 51°18.546 2°50.927 10.2766 3.655412 32.98361 13.241862
2005-04-28 07:49:52 51°18.546 2°50.927 10.2774 3.655412 32.982144 15.871195
2005-04-28 07:49:58 51°18.547 2°50.928 10.2772 3.655412 32.982144 15.871195
2005-04-28 07:50:03 51°18.547 2°50.929 10.2767 3.655306 32.981819 14.354272
2005-04-28 07:50:08 51°18.548 2°50.93 10.2762 3.655201 32.980762 15.567811
2005-04-28 07:50:13 51°18.548 2°50.931 10.2776 3.654885 32.978321 15.972324
2005-04-28 07:50:18 51°18.549 2°50.932 10.2767 3.65478 32.977264 15.095879
2005-04-28 07:50:23 51°18.549 2°50.933 10.2754 3.654463 32.974091 16.006033
2005-04-28 07:50:28 51°18.549 2°50.933 10.2796 3.654463 32.974091 16.006033
2005-04-28 07:50:33 51°18.55 2°50.934 10.2772 3.654463 32.974091 14.725076
2005-04-28 07:50:38 51°18.55 2°50.935 10.2737 3.654147 32.970918 12.736221
2005-04-28 07:50:43 51°18.551 2°50.936 10.2726 3.654042 32.969128 15.567811
2005-04-28 07:50:48 51°18.552 2°50.937 10.2737 3.653831 32.968478 14.623947
2005-04-28 07:50:53 51°18.552 2°50.937 10.2723 3.65362 32.966362 17.388118
2005-04-28 07:50:58 51°18.552 2°50.938 10.2748 3.65362 32.966362 17.388118
2005-04-28 07:51:03 51°18.553 2°50.939 10.2714 3.652988 32.959284 15.197007
2005-04-28 07:51:08 51°18.553 2°50.939 10.273 3.652777 32.957169 15.837486
2005-04-28 07:51:13 51°18.553 2°50.94 10.2732 3.652567 32.956518 14.691366
2005-04-28 07:51:18 51°18.554 2°50.941 10.2726 3.652145 32.95302 17.017315
2005-04-28 07:51:23 51°18.554 2°50.942 10.2721 3.65204 32.952695 15.736358
2005-04-28 07:51:28 51°18.554 2°50.942 10.272 3.65204 32.952695 15.736358
2005-04-28 07:51:33 51°18.555 2°50.943 10.2728 3.651724 32.949522 19.680358
2005-04-28 07:51:38 51°18.555 2°50.944 10.2747 3.651302 32.945292 18.331982
2005-04-28 07:51:42 51°18.555 2°50.945 10.2735 3.651197 32.944966 15.60152
2005-04-28 07:51:48 51°18.556 2°50.946 10.272 3.650775 32.941468 14.590238
2005-04-28 07:51:53 51°18.556 2°50.946 10.2751 3.650565 32.938621 16.410546
2005-04-28 07:51:58 51°18.557 2°50.947 10.2719 3.650565 32.938621 16.410546
2005-04-28 07:52:03 51°18.557 2°50.948 10.2714 3.650354 32.937237 14.050888
2005-04-28 07:52:08 51°18.557 2°50.948 10.2738 3.650354 32.936505 15.567811
2005-04-28 07:52:13 51°18.558 2°50.949 10.2744 3.650565 32.937889 17.28699
2005-04-28 07:52:18 51°18.558 2°50.949 10.2706 3.649827 32.931949 16.612802
2005-04-28 07:52:23 51°18.558 2°50.95 10.2773 3.649932 32.931543 18.028597
2005-04-28 07:52:28 51°18.559 2°50.951 10.2731 3.649932 32.931543 18.028597
2005-04-28 07:52:32 51°18.559 2°50.951 10.2749 3.649722 32.930892 17.489247
2005-04-28 07:52:38 51°18.559 2°50.952 10.2754 3.649616 32.929103 16.376836
2005-04-28 07:52:43 51°18.56 2°50.953 10.2733 3.649406 32.926987 15.129589
2005-04-28 07:52:48 51°18.56 2°50.953 10.2717 3.6493 32.92593 14.859913
2005-04-28 07:52:53 51°18.56 2°50.954 10.2737 3.649195 32.924872 15.736358
2005-04-28 07:52:58 51°18.561 2°50.954 10.2724 3.649195 32.924872 15.736358
2005-04-28 07:53:02 51°18.561 2°50.954 10.2716 3.648984 32.922757 14.792494
2005-04-28 07:53:08 51°18.561 2°50.954 10.2719 3.648879 32.920968 16.140871
2005-04-28 07:53:13 51°18.561 2°50.955 10.2702 3.648984 32.922757 16.74764
2005-04-28 07:53:18 51°18.562 2°50.955 10.2748 3.648457 32.91747 17.522956
2005-04-28 07:53:23 51°18.562 2°50.955 10.2728 3.648563 32.919259 13.34299
2005-04-28 07:53:28 51°18.563 2°50.955 10.2698 3.648563 32.919259 13.34299
2005-04-28 07:53:32 51°18.563 2°50.955 10.2743 3.648141 32.914297 16.680221
2005-04-28 07:53:38 51°18.563 2°50.955 10.2737 3.648247 32.915355 16.781349
2005-04-28 07:53:43 51°18.564 2°50.955 10.2719 3.648141 32.914297 16.039742
2005-04-28 07:53:48 51°18.564 2°50.955 10.2692 3.64793 32.912914 15.197007
2005-04-28 07:53:53 51°18.565 2°50.955 10.2709 3.648141 32.915029 15.63523
2005-04-28 07:53:58 51°18.565 2°50.954 10.2755 3.648141 32.915029 15.63523
2005-04-28 07:54:03 51°18.565 2°50.954 10.2713 3.648036 32.913971 17.624084
2005-04-28 07:54:08 51°18.565 2°50.953 10.2718 3.64793 32.912914 16.140871
2005-04-28 07:54:12 51°18.565 2°50.953 10.2692 3.647825 32.911125 16.680221
2005-04-28 07:54:18 51°18.566 2°50.953 10.2725 3.647614 32.909742 15.298136
2005-04-28 07:54:23 51°18.566 2°50.952 10.2767 3.64772 32.91153 15.770067
2005-04-28 07:54:28 51°18.566 2°50.951 10.2753 3.64772 32.91153 15.770067
2005-04-28 07:54:32 51°18.567 2°50.951 10.2722 3.647298 32.9073 17.792631
2005-04-28 07:54:38 51°18.567 2°50.95 10.2735 3.647404 32.906895 17.28699
2005-04-28 07:54:43 51°18.567 2°50.949 10.27 3.647509 32.908684 16.343127
2005-04-28 07:54:48 51°18.567 2°50.949 10.2698 3.647404 32.907627 16.275708
2005-04-28 07:54:53 51°18.567 2°50.948 10.2715 3.646982 32.903397 16.612802
2005-04-28 07:54:58 51°18.567 2°50.947 10.2705 3.646982 32.903397 16.612802
2005-04-28 07:55:03 51°18.568 2°50.946 10.27 3.647298 32.906569 14.421691
2005-04-28 07:55:08 51°18.568 2°50.946 10.2676 3.647193 32.904049 17.657794
2005-04-28 07:55:13 51°18.568 2°50.944 10.2683 3.646982 32.902666 16.17458
2005-04-28 07:55:18 51°18.568 2°50.944 10.269 3.646771 32.902013 16.511674
2005-04-28 07:55:23 51°18.568 2°50.943 10.27 3.646877 32.903071 17.3207
2005-04-28 07:55:28 51°18.568 2°50.942 10.2685 3.646877 32.903071 17.3207
2005-04-28 07:55:33 51°18.568 2°50.94 10.2709 3.64635 32.897783 15.702648
2005-04-28 07:55:38 51°18.569 2°50.94 10.2662 3.646561 32.900629 16.343127
2005-04-28 07:55:43 51°18.569 2°50.939 10.271 3.646455 32.898841 14.792494
2005-04-28 07:55:48 51°18.569 2°50.937 10.2715 3.64635 32.898514 16.781349
2005-04-28 07:55:53 51°18.57 2°50.936 10.2709 3.645928 32.895016 16.882477
2005-04-28 07:55:58 51°18.57 2°50.935 10.2683 3.645928 32.895016 16.882477
2005-04-28 07:56:03 51°18.57 2°50.934 10.2705 3.64635 32.899245 15.197007
2005-04-28 07:56:08 51°18.57 2°50.933 10.269 3.642767 32.862564 15.534101
2005-04-28 07:56:13 51°18.571 2°50.931 10.2686 3.643505 32.872156 15.163298
2005-04-28 07:56:18 51°18.571 2°50.93 10.2691 3.643189 32.868254 14.522819
2005-04-28 07:56:22 51°18.571 2°50.929 10.2706 3.645928 32.895747 17.624084
2005-04-28 07:56:28 51°18.571 2°50.927 10.269 3.645928 32.895747 17.624084
2005-04-28 07:56:33 51°18.572 2°50.926 10.2666 3.646034 32.894611 16.848768
2005-04-28 07:56:38 51°18.572 2°50.925 10.2679 3.645612 32.891112 15.972324
2005-04-28 07:56:43 51°18.572 2°50.923 10.2701 3.64498 32.885499 17.792631
2005-04-28 07:56:48 51°18.572 2°50.921 10.2684 3.644348 32.879154 16.74764
2005-04-28 07:56:53 51°18.572 2°50.92 10.2701 3.643821 32.873868 16.511674
2005-04-28 07:56:58 51°18.572 2°50.918 10.272 3.643821 32.873868 16.511674
2005-04-28 07:57:03 51°18.573 2°50.917 10.2693 3.645085 32.886556 14.725076
2005-04-28 07:57:08 51°18.572 2°50.916 10.275 3.644032 32.877443 16.781349
2005-04-28 07:57:13 51°18.57 2°50.915 10.2712 3.643926 32.875655 17.624084
2005-04-28 07:57:18 51°18.569 2°50.913 10.2747 3.643821 32.873868 15.702648
2005-04-28 07:57:23 51°18.568 2°50.911 10.2707 3.643716 32.874271 16.107161
2005-04-28 07:57:28 51°18.569 2°50.91 10.271 3.643716 32.874271 16.107161
2005-04-28 07:57:33 51°18.569 2°50.909 10.2691 3.643189 32.866793 17.253281
2005-04-28 07:57:38 51°18.57 2°50.907 10.2701 3.645401 32.888998 17.219571
2005-04-28 07:57:42 51°18.57 2°50.905 10.2692 3.645401 32.888267 15.63523
2005-04-28 07:57:48 51°18.571 2°50.903 10.2744 3.645401 32.886805 16.275708
2005-04-28 07:57:53 51°18.572 2°50.901 10.2704 3.645191 32.886152 18.298272
2005-04-28 07:57:58 51°18.572 2°50.899 10.2702 3.645191 32.886152 18.298272
2005-04-28 07:58:03 51°18.573 2°50.898 10.2724 3.645401 32.887536 16.882477
2005-04-28 07:58:08 51°18.574 2°50.896 10.2712 3.645191 32.885421 18.466819
2005-04-28 07:58:13 51°18.574 2°50.894 10.2704 3.645296 32.887209 16.511674
2005-04-28 07:58:18 51°18.574 2°50.892 10.2702 3.645612 32.891112 16.916187
2005-04-28 07:58:22 51°18.574 2°50.891 10.2686 3.645085 32.884364 16.71393
2005-04-28 07:58:28 51°18.573 2°50.889 10.2679 3.645085 32.884364 16.71393
2005-04-28 07:58:32 51°18.573 2°50.888 10.269 3.645296 32.887209 16.309418
2005-04-28 07:58:38 51°18.574 2°50.889 10.275 3.645191 32.885421 17.657794
2005-04-28 07:58:44 51°18.574 2°50.89 10.2682 3.645296 32.88794 15.972324
2005-04-28 07:58:48 51°18.575 2°50.893 10.2697 3.645191 32.885421 17.388118
2005-04-28 07:58:53 51°18.575 2°50.898 10.272 3.644769 32.881922 17.556665
2005-04-28 07:58:58 51°18.576 2°50.904 10.2681 3.644769 32.881922 17.556665
2005-04-28 07:59:03 51°18.577 2°50.913 10.2685 3.645296 32.88794 16.545383
2005-04-28 07:59:08 51°18.578 2°50.924 10.2711 3.64498 32.885499 17.455537
2005-04-28 07:59:13 51°18.58 2°50.937 10.2701 3.644664 32.882327 18.163435
2005-04-28 07:59:18 51°18.582 2°50.951 10.2695 3.644875 32.883711 19.242136
2005-04-28 07:59:24 51°18.585 2°50.972 10.2722 3.64498 32.885499 18.264563
2005-04-28 07:59:28 51°18.589 2°50.989 10.2697 3.64498 32.885499 18.264563
2005-04-28 07:59:34 51°18.593 2°51.012 10.2679 3.644769 32.884115 16.949896
2005-04-28 07:59:38 51°18.597 2°51.032 10.2725 3.644559 32.883461 19.376973
2005-04-28 07:59:43 51°18.602 2°51.054 10.2765 3.644769 32.884845 19.848905
2005-04-28 07:59:48 51°18.607 2°51.078 10.2772 3.644875 32.885172 15.60152
2005-04-28 07:59:53 51°18.612 2°51.1 10.271 3.644769 32.884115 17.927469
2005-04-28 07:59:58 51°18.617 2°51.125 10.2688 3.644769 32.884115 17.927469
2005-04-28 08:00:04 51°18.623 2°51.155 10.2737 3.64498 32.884037 18.264563
2005-04-28 08:00:08 51°18.628 2°51.178 10.2697 3.644875 32.884441 17.084734
2005-04-28 08:00:13 51°18.633 2°51.201 10.2686 3.644348 32.879154 20.995024
2005-04-28 08:00:18 51°18.639 2°51.229 10.2686 3.644453 32.877289 20.69164
2005-04-28 08:00:23 51°18.644 2°51.255 10.2639 3.644453 32.875828 18.534238
2005-04-28 08:00:28 51°18.65 2°51.281 10.2628 3.644453 32.875828 18.534238
2005-04-28 08:00:33 51°18.655 2°51.306 10.2629 3.644137 32.873387 19.141007
2005-04-28 08:00:38 51°18.66 2°51.33 10.2601 3.64361 32.870292 18.129725
2005-04-28 08:00:43 51°18.666 2°51.359 10.2596 3.642662 32.860776 19.714067
2005-04-28 08:00:48 51°18.671 2°51.384 10.2583 3.641924 32.854106 18.736494
2005-04-28 08:00:53 51°18.676 2°51.408 10.255 3.641292 32.849222 18.096016
2005-04-28 08:00:58 51°18.681 2°51.434 10.2563 3.641292 32.849222 18.096016
2005-04-28 08:01:03 51°18.686 2°51.461 10.252 3.636656 32.805624 17.556665
2005-04-28 08:01:08 51°18.691 2°51.489 10.2524 3.638552 32.825383 17.354409
2005-04-28 08:01:12 51°18.695 2°51.51 10.2507 3.63655 32.805296 18.466819
2005-04-28 08:01:18 51°18.701 2°51.539 10.2505 3.634548 32.788126 19.444392
2005-04-28 08:01:23 51°18.707 2°51.568 10.2476 3.632441 32.76844 18.567947
2005-04-28 08:01:28 51°18.713 2°51.594 10.2467 3.632441 32.76844 18.567947
2005-04-28 08:01:33 51°18.719 2°51.62 10.2474 3.63202 32.765669 19.882614
2005-04-28 08:01:38 51°18.724 2°51.643 10.2462 3.631387 32.760054 18.669076
2005-04-28 08:01:43 51°18.731 2°51.671 10.2469 3.630439 32.752725 21.736631
2005-04-28 08:01:48 51°18.737 2°51.693 10.2512 3.629491 32.743938 18.567947
2005-04-28 08:01:52 51°18.742 2°51.717 10.2476 3.628648 32.736937 19.882614
2005-04-28 08:01:58 51°18.748 2°51.745 10.25 3.628648 32.736937 19.882614
2005-04-28 08:02:02 51°18.753 2°51.766 10.2474 3.627278 32.725378 18.567947
2005-04-28 08:02:08 51°18.76 2°51.799 10.249 3.62654 32.718705 21.197281
2005-04-28 08:02:12 51°18.765 2°51.819 10.248 3.626014 32.71342 18.702785
2005-04-28 08:02:18 51°18.772 2°51.848 10.2475 3.625065 32.703906 20.051161
2005-04-28 08:02:22 51°18.777 2°51.871 10.2459 3.624117 32.692939 18.669076
2005-04-28 08:02:28 51°18.784 2°51.901 10.2481 3.624117 32.692939 18.669076
2005-04-28 08:02:33 51°18.789 2°51.925 10.246 3.622431 32.676755 20.253418
2005-04-28 08:02:38 51°18.795 2°51.951 10.2472 3.62064 32.659514 18.770204
2005-04-28 08:02:43 51°18.8 2°51.978 10.2371 3.618848 32.640823 20.556802
2005-04-28 08:02:48 51°18.806 2°52.004 10.2444 3.617479 32.628536 17.489247
2005-04-28 08:02:52 51°18.811 2°52.025 10.2399 3.615898 32.611961 19.511811
2005-04-28 08:02:58 51°18.818 2°52.053 10.2362 3.615898 32.611961 19.511811
2005-04-28 08:03:04 51°18.825 2°52.084 10.2343 3.614528 32.597501 18.331982
2005-04-28 08:03:08 51°18.83 2°52.107 10.2346 3.613475 32.58766 18.871332
2005-04-28 08:03:12 51°18.835 2°52.127 10.2348 3.612 32.573594 19.680358
2005-04-28 08:03:18 51°18.841 2°52.155 10.239 3.610524 32.560976 21.534375
2005-04-28 08:03:23 51°18.847 2°52.184 10.2348 3.609576 32.552915 16.208289
2005-04-28 08:03:28 51°18.852 2°52.209 10.2392 3.609576 32.552915 16.208289
2005-04-28 08:03:33 51°18.858 2°52.232 10.2346 3.608523 32.543798 19.410683
2005-04-28 08:03:38 51°18.864 2°52.261 10.2328 3.607047 32.531178 19.343264
2005-04-28 08:03:42 51°18.868 2°52.278 10.2307 3.606205 32.524174 20.354546
2005-04-28 08:03:48 51°18.875 2°52.312 10.2279 3.605256 32.514666 21.399537
2005-04-28 08:03:53 51°18.88 2°52.337 10.2292 3.604519 32.507271 19.107298
2005-04-28 08:03:58 51°18.886 2°52.361 10.2232 3.604519 32.507271 19.107298
2005-04-28 08:04:02 51°18.89 2°52.381 10.2189 3.603781 32.499876 20.388255
2005-04-28 08:04:08 51°18.898 2°52.415 10.2166 3.602622 32.488979 18.736494
2005-04-28 08:04:13 51°18.904 2°52.44 10.2173 3.601463 32.478082 19.444392
2005-04-28 08:04:18 51°18.909 2°52.466 10.2166 3.599988 32.465461 19.275845
2005-04-28 08:04:23 51°18.914 2°52.489 10.2211 3.59925 32.460233 17.657794
2005-04-28 08:04:28 51°18.921 2°52.517 10.2223 3.59925 32.460233 17.657794
2005-04-28 08:04:33 51°18.926 2°52.54 10.2262 3.598197 32.451835 22.141144
2005-04-28 08:04:38 51°18.932 2°52.566 10.2254 3.597143 32.444881 21.433247
2005-04-28 08:04:44 51°18.939 2°52.597 10.228 3.596195 32.43826 22.040016
2005-04-28 08:04:48 51°18.944 2°52.62 10.2307 3.595668 32.434421 20.893896
2005-04-28 08:04:52 51°18.949 2°52.64 10.2342 3.595036 32.428082 22.309691
2005-04-28 08:04:58 51°18.956 2°52.671 10.235 3.595036 32.428082 22.309691
2005-04-28 08:05:03 51°18.962 2°52.696 10.2322 3.595141 32.428417 19.950033
2005-04-28 08:05:08 51°18.967 2°52.722 10.2369 3.59472 32.422749 21.601794
2005-04-28 08:05:13 51°18.972 2°52.745 10.235 3.594298 32.415638 22.680494
2005-04-28 08:05:18 51°18.978 2°52.771 10.2378 3.593772 32.408915 21.871469
2005-04-28 08:05:23 51°18.984 2°52.8 10.2292 3.593666 32.405696 21.702922
2005-04-28 08:05:28 51°18.99 2°52.826 10.2306 3.593666 32.405696 21.702922
2005-04-28 08:05:33 51°18.996 2°52.851 10.2288 3.593245 32.400751 21.770341
2005-04-28 08:05:38 51°19.001 2°52.875 10.2307 3.592612 32.392974 22.040016
2005-04-28 08:05:42 51°19.005 2°52.895 10.2313 3.59198 32.385918 21.062443
2005-04-28 08:05:48 51°19.013 2°52.929 10.2273 3.587344 32.337304 19.444392
2005-04-28 08:05:53 51°19.018 2°52.955 10.2289 3.588082 32.346132 23.354683
2005-04-28 08:05:58 51°19.023 2°52.978 10.2256 3.588082 32.346132 23.354683
2005-04-28 08:06:03 51°19.029 2°53.007 10.2233 3.587134 32.33735 22.275982
2005-04-28 08:06:08 51°19.034 2°53.033 10.2256 3.586923 32.335958 23.017589
2005-04-28 08:06:13 51°19.039 2°53.056 10.2225 3.586817 32.336341 21.972597
2005-04-28 08:06:18 51°19.045 2°53.082 10.2249 3.587555 32.34445 21.601794
2005-04-28 08:06:22 51°19.05 2°53.102 10.2215 3.588925 32.358176 20.995024
2005-04-28 08:06:28 51°19.057 2°53.135 10.2209 3.588925 32.358176 20.995024
2005-04-28 08:06:33 51°19.063 2°53.16 10.2223 3.587871 32.349057 22.95017
2005-04-28 08:06:38 51°19.068 2°53.183 10.2182 3.586712 32.338881 22.714204
2005-04-28 08:06:43 51°19.074 2°53.212 10.2161 3.584183 32.314261 22.579366
2005-04-28 08:06:48 51°19.079 2°53.237 10.2182 3.583341 32.306533 20.893896
2005-04-28 08:06:52 51°19.084 2°53.258 10.2184 3.583024 32.304085 22.006306
2005-04-28 08:06:58 51°19.09 2°53.289 10.2179 3.583024 32.304085 22.006306
2005-04-28 08:07:04 51°19.097 2°53.317 10.2191 3.581865 32.293909 24.972734
2005-04-28 08:07:08 51°19.101 2°53.34 10.2163 3.581233 32.287574 23.995161
2005-04-28 08:07:12 51°19.105 2°53.361 10.2134 3.580601 32.282676 22.747913
2005-04-28 08:07:18 51°19.111 2°53.389 10.2099 3.579337 32.270726 23.691777
2005-04-28 08:07:23 51°19.117 2°53.417 10.2116 3.57744 32.252441 22.478238
2005-04-28 08:07:28 51°19.122 2°53.443 10.214 3.57744 32.252441 22.478238